<?xml version="1.0" encoding="UTF-8" standalone="no" ?>
<gpx xmlns="http://www.topografix.com/GPX/1/1" xmlns:xsi="http://www.w3.org/2001/XMLSchema-instance" xsi:schemaLocation="http://www.topografix.com/GPX/1/1 http://www.topografix.com/GPX/1/1/gpx.xsd" version="1.1" creator="VisuGPX - https://www.visugpx.com">
  <metadata>
    <name>VTT 20-09-20</name>
  </metadata>
  <trk>
    <name><![CDATA[VTT 10-09-11]]></name>
    <trkseg>
      <trkpt lat="43.23496" lon="0.10129">
        <ele>314.49</ele>
        <time>2011-09-10T16:50:08Z</time>
      </trkpt>
      <trkpt lat="43.23496" lon="0.10128">
        <ele>307.28</ele>
        <time>2011-09-10T16:50:09Z</time>
      </trkpt>
      <trkpt lat="43.23496" lon="0.10127">
        <ele>314.97</ele>
        <time>2011-09-10T16:50:10Z</time>
      </trkpt>
      <trkpt lat="43.23494" lon="0.1013">
        <ele>313.05</ele>
        <time>2011-09-10T16:50:22Z</time>
      </trkpt>
      <trkpt lat="43.23495" lon="0.10128">
        <ele>313.05</ele>
        <time>2011-09-10T16:50:24Z</time>
      </trkpt>
      <trkpt lat="43.23496" lon="0.10124">
        <ele>313.05</ele>
        <time>2011-09-10T16:50:30Z</time>
      </trkpt>
      <trkpt lat="43.23493" lon="0.1013">
        <ele>305.36</ele>
        <time>2011-09-10T16:50:38Z</time>
      </trkpt>
      <trkpt lat="43.23493" lon="0.1013">
        <ele>313.05</ele>
        <time>2011-09-10T16:50:39Z</time>
      </trkpt>
      <trkpt lat="43.23493" lon="0.10131">
        <ele>314.49</ele>
        <time>2011-09-10T16:50:41Z</time>
      </trkpt>
      <trkpt lat="43.23498" lon="0.10136">
        <ele>314.97</ele>
        <time>2011-09-10T16:52:06Z</time>
      </trkpt>
      <trkpt lat="43.23499" lon="0.10134">
        <ele>318.33</ele>
        <time>2011-09-10T16:52:14Z</time>
      </trkpt>
      <trkpt lat="43.23494" lon="0.10135">
        <ele>319.78</ele>
        <time>2011-09-10T16:52:58Z</time>
      </trkpt>
      <trkpt lat="43.23487" lon="0.10132">
        <ele>319.78</ele>
        <time>2011-09-10T16:53:10Z</time>
      </trkpt>
      <trkpt lat="43.23486" lon="0.10133">
        <ele>320.26</ele>
        <time>2011-09-10T16:53:37Z</time>
      </trkpt>
      <trkpt lat="43.2348" lon="0.10157">
        <ele>320.26</ele>
        <time>2011-09-10T16:53:46Z</time>
      </trkpt>
      <trkpt lat="43.2348" lon="0.10162">
        <ele>320.26</ele>
        <time>2011-09-10T16:53:47Z</time>
      </trkpt>
      <trkpt lat="43.23489" lon="0.10221">
        <ele>320.74</ele>
        <time>2011-09-10T16:53:58Z</time>
      </trkpt>
      <trkpt lat="43.23492" lon="0.10238">
        <ele>320.26</ele>
        <time>2011-09-10T16:54:01Z</time>
      </trkpt>
      <trkpt lat="43.23508" lon="0.10335">
        <ele>320.26</ele>
        <time>2011-09-10T16:54:18Z</time>
      </trkpt>
      <trkpt lat="43.23518" lon="0.10374">
        <ele>319.78</ele>
        <time>2011-09-10T16:54:31Z</time>
      </trkpt>
      <trkpt lat="43.23522" lon="0.10404">
        <ele>319.78</ele>
        <time>2011-09-10T16:54:48Z</time>
      </trkpt>
      <trkpt lat="43.23529" lon="0.10423">
        <ele>320.26</ele>
        <time>2011-09-10T16:54:54Z</time>
      </trkpt>
      <trkpt lat="43.23533" lon="0.10423">
        <ele>319.78</ele>
        <time>2011-09-10T16:54:55Z</time>
      </trkpt>
      <trkpt lat="43.23536" lon="0.10423">
        <ele>319.78</ele>
        <time>2011-09-10T16:54:56Z</time>
      </trkpt>
      <trkpt lat="43.23541" lon="0.10422">
        <ele>319.78</ele>
        <time>2011-09-10T16:54:57Z</time>
      </trkpt>
      <trkpt lat="43.23545" lon="0.10421">
        <ele>319.78</ele>
        <time>2011-09-10T16:54:58Z</time>
      </trkpt>
      <trkpt lat="43.23558" lon="0.10417">
        <ele>319.78</ele>
        <time>2011-09-10T16:55:01Z</time>
      </trkpt>
      <trkpt lat="43.23626" lon="0.10393">
        <ele>319.3</ele>
        <time>2011-09-10T16:55:16Z</time>
      </trkpt>
      <trkpt lat="43.23684" lon="0.10374">
        <ele>318.33</ele>
        <time>2011-09-10T16:55:28Z</time>
      </trkpt>
      <trkpt lat="43.23734" lon="0.10356">
        <ele>317.85</ele>
        <time>2011-09-10T16:55:38Z</time>
      </trkpt>
      <trkpt lat="43.23789" lon="0.10337">
        <ele>317.37</ele>
        <time>2011-09-10T16:55:48Z</time>
      </trkpt>
      <trkpt lat="43.238" lon="0.10334">
        <ele>317.37</ele>
        <time>2011-09-10T16:55:50Z</time>
      </trkpt>
      <trkpt lat="43.23844" lon="0.10331">
        <ele>316.41</ele>
        <time>2011-09-10T16:55:59Z</time>
      </trkpt>
      <trkpt lat="43.23865" lon="0.10333">
        <ele>316.41</ele>
        <time>2011-09-10T16:56:03Z</time>
      </trkpt>
      <trkpt lat="43.2387" lon="0.10335">
        <ele>316.41</ele>
        <time>2011-09-10T16:56:04Z</time>
      </trkpt>
      <trkpt lat="43.23888" lon="0.10347">
        <ele>316.41</ele>
        <time>2011-09-10T16:56:08Z</time>
      </trkpt>
      <trkpt lat="43.23911" lon="0.10363">
        <ele>315.93</ele>
        <time>2011-09-10T16:56:14Z</time>
      </trkpt>
      <trkpt lat="43.23914" lon="0.10367">
        <ele>315.45</ele>
        <time>2011-09-10T16:56:15Z</time>
      </trkpt>
      <trkpt lat="43.23915" lon="0.10371">
        <ele>315.45</ele>
        <time>2011-09-10T16:56:16Z</time>
      </trkpt>
      <trkpt lat="43.23916" lon="0.10376">
        <ele>315.93</ele>
        <time>2011-09-10T16:56:17Z</time>
      </trkpt>
      <trkpt lat="43.23915" lon="0.1038">
        <ele>315.93</ele>
        <time>2011-09-10T16:56:18Z</time>
      </trkpt>
      <trkpt lat="43.23913" lon="0.10384">
        <ele>315.93</ele>
        <time>2011-09-10T16:56:19Z</time>
      </trkpt>
      <trkpt lat="43.23892" lon="0.1044">
        <ele>315.93</ele>
        <time>2011-09-10T16:56:33Z</time>
      </trkpt>
      <trkpt lat="43.23876" lon="0.10486">
        <ele>315.93</ele>
        <time>2011-09-10T16:56:43Z</time>
      </trkpt>
      <trkpt lat="43.23864" lon="0.10517">
        <ele>316.41</ele>
        <time>2011-09-10T16:56:49Z</time>
      </trkpt>
      <trkpt lat="43.23862" lon="0.10522">
        <ele>315.93</ele>
        <time>2011-09-10T16:56:50Z</time>
      </trkpt>
      <trkpt lat="43.2386" lon="0.10527">
        <ele>316.41</ele>
        <time>2011-09-10T16:56:51Z</time>
      </trkpt>
      <trkpt lat="43.2383" lon="0.10603">
        <ele>316.89</ele>
        <time>2011-09-10T16:57:07Z</time>
      </trkpt>
      <trkpt lat="43.23826" lon="0.10615">
        <ele>316.89</ele>
        <time>2011-09-10T16:57:10Z</time>
      </trkpt>
      <trkpt lat="43.23827" lon="0.10618">
        <ele>316.41</ele>
        <time>2011-09-10T16:57:11Z</time>
      </trkpt>
      <trkpt lat="43.23828" lon="0.10621">
        <ele>316.89</ele>
        <time>2011-09-10T16:57:12Z</time>
      </trkpt>
      <trkpt lat="43.23831" lon="0.10624">
        <ele>316.41</ele>
        <time>2011-09-10T16:57:13Z</time>
      </trkpt>
      <trkpt lat="43.23835" lon="0.10625">
        <ele>316.41</ele>
        <time>2011-09-10T16:57:14Z</time>
      </trkpt>
      <trkpt lat="43.23839" lon="0.10625">
        <ele>316.41</ele>
        <time>2011-09-10T16:57:15Z</time>
      </trkpt>
      <trkpt lat="43.23843" lon="0.10625">
        <ele>316.41</ele>
        <time>2011-09-10T16:57:16Z</time>
      </trkpt>
      <trkpt lat="43.23847" lon="0.10625">
        <ele>316.89</ele>
        <time>2011-09-10T16:57:17Z</time>
      </trkpt>
      <trkpt lat="43.23868" lon="0.10626">
        <ele>315.93</ele>
        <time>2011-09-10T16:57:22Z</time>
      </trkpt>
      <trkpt lat="43.23888" lon="0.10629">
        <ele>315.93</ele>
        <time>2011-09-10T16:57:27Z</time>
      </trkpt>
      <trkpt lat="43.23893" lon="0.10629">
        <ele>315.93</ele>
        <time>2011-09-10T16:57:28Z</time>
      </trkpt>
      <trkpt lat="43.23935" lon="0.10632">
        <ele>315.45</ele>
        <time>2011-09-10T16:57:40Z</time>
      </trkpt>
      <trkpt lat="43.23972" lon="0.10634">
        <ele>315.45</ele>
        <time>2011-09-10T16:57:50Z</time>
      </trkpt>
      <trkpt lat="43.23999" lon="0.10638">
        <ele>314.97</ele>
        <time>2011-09-10T16:57:58Z</time>
      </trkpt>
      <trkpt lat="43.24027" lon="0.10642">
        <ele>314.01</ele>
        <time>2011-09-10T16:58:07Z</time>
      </trkpt>
      <trkpt lat="43.24056" lon="0.1065">
        <ele>314.49</ele>
        <time>2011-09-10T16:58:15Z</time>
      </trkpt>
      <trkpt lat="43.24091" lon="0.10653">
        <ele>314.01</ele>
        <time>2011-09-10T16:58:24Z</time>
      </trkpt>
      <trkpt lat="43.24122" lon="0.10661">
        <ele>313.53</ele>
        <time>2011-09-10T16:58:32Z</time>
      </trkpt>
      <trkpt lat="43.24144" lon="0.10715">
        <ele>313.05</ele>
        <time>2011-09-10T16:58:44Z</time>
      </trkpt>
      <trkpt lat="43.24156" lon="0.10764">
        <ele>313.53</ele>
        <time>2011-09-10T16:58:54Z</time>
      </trkpt>
      <trkpt lat="43.2417" lon="0.10827">
        <ele>313.05</ele>
        <time>2011-09-10T16:59:07Z</time>
      </trkpt>
      <trkpt lat="43.24182" lon="0.10874">
        <ele>313.05</ele>
        <time>2011-09-10T16:59:17Z</time>
      </trkpt>
      <trkpt lat="43.24187" lon="0.10902">
        <ele>312.57</ele>
        <time>2011-09-10T16:59:23Z</time>
      </trkpt>
      <trkpt lat="43.24188" lon="0.10908">
        <ele>313.05</ele>
        <time>2011-09-10T16:59:24Z</time>
      </trkpt>
      <trkpt lat="43.24189" lon="0.10913">
        <ele>313.05</ele>
        <time>2011-09-10T16:59:25Z</time>
      </trkpt>
      <trkpt lat="43.2419" lon="0.10919">
        <ele>312.57</ele>
        <time>2011-09-10T16:59:26Z</time>
      </trkpt>
      <trkpt lat="43.24191" lon="0.10924">
        <ele>312.09</ele>
        <time>2011-09-10T16:59:27Z</time>
      </trkpt>
      <trkpt lat="43.24203" lon="0.10978">
        <ele>313.05</ele>
        <time>2011-09-10T16:59:36Z</time>
      </trkpt>
      <trkpt lat="43.24209" lon="0.11008">
        <ele>313.53</ele>
        <time>2011-09-10T16:59:41Z</time>
      </trkpt>
      <trkpt lat="43.2421" lon="0.11014">
        <ele>313.53</ele>
        <time>2011-09-10T16:59:42Z</time>
      </trkpt>
      <trkpt lat="43.24229" lon="0.11088">
        <ele>313.05</ele>
        <time>2011-09-10T16:59:55Z</time>
      </trkpt>
      <trkpt lat="43.2425" lon="0.11176">
        <ele>313.05</ele>
        <time>2011-09-10T17:00:11Z</time>
      </trkpt>
      <trkpt lat="43.24253" lon="0.11187">
        <ele>313.05</ele>
        <time>2011-09-10T17:00:13Z</time>
      </trkpt>
      <trkpt lat="43.24266" lon="0.1125">
        <ele>313.53</ele>
        <time>2011-09-10T17:00:26Z</time>
      </trkpt>
      <trkpt lat="43.24263" lon="0.11268">
        <ele>313.53</ele>
        <time>2011-09-10T17:00:30Z</time>
      </trkpt>
      <trkpt lat="43.24265" lon="0.11272">
        <ele>313.53</ele>
        <time>2011-09-10T17:00:31Z</time>
      </trkpt>
      <trkpt lat="43.24266" lon="0.11275">
        <ele>313.05</ele>
        <time>2011-09-10T17:00:32Z</time>
      </trkpt>
      <trkpt lat="43.24269" lon="0.11278">
        <ele>313.05</ele>
        <time>2011-09-10T17:00:33Z</time>
      </trkpt>
      <trkpt lat="43.24272" lon="0.11279">
        <ele>313.05</ele>
        <time>2011-09-10T17:00:34Z</time>
      </trkpt>
      <trkpt lat="43.24275" lon="0.11279">
        <ele>312.57</ele>
        <time>2011-09-10T17:00:35Z</time>
      </trkpt>
      <trkpt lat="43.24278" lon="0.11279">
        <ele>312.57</ele>
        <time>2011-09-10T17:00:36Z</time>
      </trkpt>
      <trkpt lat="43.24281" lon="0.11278">
        <ele>313.05</ele>
        <time>2011-09-10T17:00:37Z</time>
      </trkpt>
      <trkpt lat="43.24283" lon="0.11277">
        <ele>312.57</ele>
        <time>2011-09-10T17:00:38Z</time>
      </trkpt>
      <trkpt lat="43.2432" lon="0.11267">
        <ele>312.57</ele>
        <time>2011-09-10T17:00:49Z</time>
      </trkpt>
      <trkpt lat="43.24345" lon="0.1126">
        <ele>312.57</ele>
        <time>2011-09-10T17:00:56Z</time>
      </trkpt>
      <trkpt lat="43.24349" lon="0.11259">
        <ele>313.05</ele>
        <time>2011-09-10T17:00:57Z</time>
      </trkpt>
      <trkpt lat="43.24373" lon="0.11255">
        <ele>312.57</ele>
        <time>2011-09-10T17:01:02Z</time>
      </trkpt>
      <trkpt lat="43.24377" lon="0.11254">
        <ele>312.09</ele>
        <time>2011-09-10T17:01:03Z</time>
      </trkpt>
      <trkpt lat="43.244" lon="0.11248">
        <ele>312.57</ele>
        <time>2011-09-10T17:01:08Z</time>
      </trkpt>
      <trkpt lat="43.24409" lon="0.11245">
        <ele>312.09</ele>
        <time>2011-09-10T17:01:10Z</time>
      </trkpt>
      <trkpt lat="43.24413" lon="0.11245">
        <ele>312.09</ele>
        <time>2011-09-10T17:01:11Z</time>
      </trkpt>
      <trkpt lat="43.24426" lon="0.11245">
        <ele>311.12</ele>
        <time>2011-09-10T17:01:14Z</time>
      </trkpt>
      <trkpt lat="43.2443" lon="0.11246">
        <ele>311.6</ele>
        <time>2011-09-10T17:01:15Z</time>
      </trkpt>
      <trkpt lat="43.24435" lon="0.11245">
        <ele>311.6</ele>
        <time>2011-09-10T17:01:16Z</time>
      </trkpt>
      <trkpt lat="43.24469" lon="0.1124">
        <ele>310.64</ele>
        <time>2011-09-10T17:01:24Z</time>
      </trkpt>
      <trkpt lat="43.24483" lon="0.11238">
        <ele>311.6</ele>
        <time>2011-09-10T17:01:27Z</time>
      </trkpt>
      <trkpt lat="43.24505" lon="0.11232">
        <ele>310.16</ele>
        <time>2011-09-10T17:01:33Z</time>
      </trkpt>
      <trkpt lat="43.24507" lon="0.11229">
        <ele>310.16</ele>
        <time>2011-09-10T17:01:34Z</time>
      </trkpt>
      <trkpt lat="43.24511" lon="0.11227">
        <ele>310.64</ele>
        <time>2011-09-10T17:01:35Z</time>
      </trkpt>
      <trkpt lat="43.24513" lon="0.11227">
        <ele>310.64</ele>
        <time>2011-09-10T17:01:36Z</time>
      </trkpt>
      <trkpt lat="43.24516" lon="0.11229">
        <ele>311.12</ele>
        <time>2011-09-10T17:01:37Z</time>
      </trkpt>
      <trkpt lat="43.24519" lon="0.11232">
        <ele>310.64</ele>
        <time>2011-09-10T17:01:38Z</time>
      </trkpt>
      <trkpt lat="43.24522" lon="0.11235">
        <ele>310.64</ele>
        <time>2011-09-10T17:01:39Z</time>
      </trkpt>
      <trkpt lat="43.2453" lon="0.11243">
        <ele>310.16</ele>
        <time>2011-09-10T17:01:42Z</time>
      </trkpt>
      <trkpt lat="43.24531" lon="0.11246">
        <ele>310.16</ele>
        <time>2011-09-10T17:01:43Z</time>
      </trkpt>
      <trkpt lat="43.24533" lon="0.11249">
        <ele>310.16</ele>
        <time>2011-09-10T17:01:44Z</time>
      </trkpt>
      <trkpt lat="43.24535" lon="0.11251">
        <ele>309.68</ele>
        <time>2011-09-10T17:01:45Z</time>
      </trkpt>
      <trkpt lat="43.24538" lon="0.11253">
        <ele>310.64</ele>
        <time>2011-09-10T17:01:46Z</time>
      </trkpt>
      <trkpt lat="43.24542" lon="0.11256">
        <ele>310.16</ele>
        <time>2011-09-10T17:01:47Z</time>
      </trkpt>
      <trkpt lat="43.24551" lon="0.11261">
        <ele>310.64</ele>
        <time>2011-09-10T17:01:50Z</time>
      </trkpt>
      <trkpt lat="43.24553" lon="0.11264">
        <ele>311.12</ele>
        <time>2011-09-10T17:01:51Z</time>
      </trkpt>
      <trkpt lat="43.24556" lon="0.11267">
        <ele>311.6</ele>
        <time>2011-09-10T17:01:52Z</time>
      </trkpt>
      <trkpt lat="43.24558" lon="0.11269">
        <ele>313.05</ele>
        <time>2011-09-10T17:01:53Z</time>
      </trkpt>
      <trkpt lat="43.2456" lon="0.11272">
        <ele>312.57</ele>
        <time>2011-09-10T17:01:54Z</time>
      </trkpt>
      <trkpt lat="43.24562" lon="0.11274">
        <ele>313.05</ele>
        <time>2011-09-10T17:01:55Z</time>
      </trkpt>
      <trkpt lat="43.24564" lon="0.11276">
        <ele>313.05</ele>
        <time>2011-09-10T17:01:56Z</time>
      </trkpt>
      <trkpt lat="43.24572" lon="0.11278">
        <ele>313.53</ele>
        <time>2011-09-10T17:02:11Z</time>
      </trkpt>
      <trkpt lat="43.24573" lon="0.11279">
        <ele>314.49</ele>
        <time>2011-09-10T17:04:15Z</time>
      </trkpt>
      <trkpt lat="43.24575" lon="0.11279">
        <ele>314.49</ele>
        <time>2011-09-10T17:04:16Z</time>
      </trkpt>
      <trkpt lat="43.24577" lon="0.11279">
        <ele>314.01</ele>
        <time>2011-09-10T17:04:17Z</time>
      </trkpt>
      <trkpt lat="43.24579" lon="0.11278">
        <ele>314.49</ele>
        <time>2011-09-10T17:04:18Z</time>
      </trkpt>
      <trkpt lat="43.24581" lon="0.11278">
        <ele>314.01</ele>
        <time>2011-09-10T17:04:19Z</time>
      </trkpt>
      <trkpt lat="43.24584" lon="0.11278">
        <ele>314.49</ele>
        <time>2011-09-10T17:04:20Z</time>
      </trkpt>
      <trkpt lat="43.24605" lon="0.11278">
        <ele>313.53</ele>
        <time>2011-09-10T17:04:25Z</time>
      </trkpt>
      <trkpt lat="43.24623" lon="0.11274">
        <ele>313.05</ele>
        <time>2011-09-10T17:04:28Z</time>
      </trkpt>
      <trkpt lat="43.24629" lon="0.11272">
        <ele>312.57</ele>
        <time>2011-09-10T17:04:29Z</time>
      </trkpt>
      <trkpt lat="43.24634" lon="0.1127">
        <ele>312.57</ele>
        <time>2011-09-10T17:04:30Z</time>
      </trkpt>
      <trkpt lat="43.24659" lon="0.11257">
        <ele>313.53</ele>
        <time>2011-09-10T17:04:35Z</time>
      </trkpt>
      <trkpt lat="43.24664" lon="0.11253">
        <ele>313.53</ele>
        <time>2011-09-10T17:04:36Z</time>
      </trkpt>
      <trkpt lat="43.24669" lon="0.11249">
        <ele>314.01</ele>
        <time>2011-09-10T17:04:37Z</time>
      </trkpt>
      <trkpt lat="43.24723" lon="0.11215">
        <ele>312.09</ele>
        <time>2011-09-10T17:04:46Z</time>
      </trkpt>
      <trkpt lat="43.24775" lon="0.11215">
        <ele>311.12</ele>
        <time>2011-09-10T17:04:53Z</time>
      </trkpt>
      <trkpt lat="43.24819" lon="0.1122">
        <ele>310.64</ele>
        <time>2011-09-10T17:05:00Z</time>
      </trkpt>
      <trkpt lat="43.24836" lon="0.11213">
        <ele>310.64</ele>
        <time>2011-09-10T17:05:02Z</time>
      </trkpt>
      <trkpt lat="43.249" lon="0.1119">
        <ele>310.16</ele>
        <time>2011-09-10T17:05:11Z</time>
      </trkpt>
      <trkpt lat="43.24906" lon="0.1119">
        <ele>309.68</ele>
        <time>2011-09-10T17:05:12Z</time>
      </trkpt>
      <trkpt lat="43.24939" lon="0.11188">
        <ele>308.72</ele>
        <time>2011-09-10T17:05:18Z</time>
      </trkpt>
      <trkpt lat="43.24943" lon="0.11188">
        <ele>309.2</ele>
        <time>2011-09-10T17:05:19Z</time>
      </trkpt>
      <trkpt lat="43.24947" lon="0.11189">
        <ele>309.2</ele>
        <time>2011-09-10T17:05:20Z</time>
      </trkpt>
      <trkpt lat="43.2495" lon="0.11192">
        <ele>308.72</ele>
        <time>2011-09-10T17:05:21Z</time>
      </trkpt>
      <trkpt lat="43.24952" lon="0.11196">
        <ele>308.72</ele>
        <time>2011-09-10T17:05:22Z</time>
      </trkpt>
      <trkpt lat="43.24953" lon="0.11199">
        <ele>308.72</ele>
        <time>2011-09-10T17:05:23Z</time>
      </trkpt>
      <trkpt lat="43.24953" lon="0.11203">
        <ele>309.2</ele>
        <time>2011-09-10T17:05:24Z</time>
      </trkpt>
      <trkpt lat="43.24952" lon="0.11206">
        <ele>308.24</ele>
        <time>2011-09-10T17:05:25Z</time>
      </trkpt>
      <trkpt lat="43.24952" lon="0.11209">
        <ele>308.72</ele>
        <time>2011-09-10T17:05:26Z</time>
      </trkpt>
      <trkpt lat="43.24952" lon="0.11212">
        <ele>308.24</ele>
        <time>2011-09-10T17:05:27Z</time>
      </trkpt>
      <trkpt lat="43.24952" lon="0.11215">
        <ele>309.2</ele>
        <time>2011-09-10T17:05:28Z</time>
      </trkpt>
      <trkpt lat="43.24952" lon="0.11218">
        <ele>308.72</ele>
        <time>2011-09-10T17:05:29Z</time>
      </trkpt>
      <trkpt lat="43.24953" lon="0.11221">
        <ele>308.72</ele>
        <time>2011-09-10T17:05:30Z</time>
      </trkpt>
      <trkpt lat="43.24953" lon="0.11223">
        <ele>308.72</ele>
        <time>2011-09-10T17:05:31Z</time>
      </trkpt>
      <trkpt lat="43.24953" lon="0.11226">
        <ele>309.68</ele>
        <time>2011-09-10T17:05:32Z</time>
      </trkpt>
      <trkpt lat="43.24954" lon="0.11229">
        <ele>309.2</ele>
        <time>2011-09-10T17:05:33Z</time>
      </trkpt>
      <trkpt lat="43.24954" lon="0.11232">
        <ele>309.68</ele>
        <time>2011-09-10T17:05:34Z</time>
      </trkpt>
      <trkpt lat="43.24956" lon="0.11234">
        <ele>309.68</ele>
        <time>2011-09-10T17:05:35Z</time>
      </trkpt>
      <trkpt lat="43.24958" lon="0.11234">
        <ele>309.68</ele>
        <time>2011-09-10T17:05:36Z</time>
      </trkpt>
      <trkpt lat="43.24959" lon="0.11235">
        <ele>309.68</ele>
        <time>2011-09-10T17:05:37Z</time>
      </trkpt>
      <trkpt lat="43.24961" lon="0.11234">
        <ele>309.68</ele>
        <time>2011-09-10T17:05:38Z</time>
      </trkpt>
      <trkpt lat="43.24963" lon="0.11234">
        <ele>309.68</ele>
        <time>2011-09-10T17:05:39Z</time>
      </trkpt>
      <trkpt lat="43.24979" lon="0.11234">
        <ele>309.2</ele>
        <time>2011-09-10T17:05:48Z</time>
      </trkpt>
      <trkpt lat="43.24981" lon="0.11232">
        <ele>308.72</ele>
        <time>2011-09-10T17:05:49Z</time>
      </trkpt>
      <trkpt lat="43.24983" lon="0.1123">
        <ele>309.2</ele>
        <time>2011-09-10T17:05:50Z</time>
      </trkpt>
      <trkpt lat="43.24985" lon="0.11229">
        <ele>308.72</ele>
        <time>2011-09-10T17:05:51Z</time>
      </trkpt>
      <trkpt lat="43.24988" lon="0.11228">
        <ele>309.68</ele>
        <time>2011-09-10T17:05:52Z</time>
      </trkpt>
      <trkpt lat="43.24991" lon="0.11227">
        <ele>308.72</ele>
        <time>2011-09-10T17:05:53Z</time>
      </trkpt>
      <trkpt lat="43.25025" lon="0.11223">
        <ele>309.68</ele>
        <time>2011-09-10T17:06:05Z</time>
      </trkpt>
      <trkpt lat="43.25054" lon="0.11218">
        <ele>309.2</ele>
        <time>2011-09-10T17:06:13Z</time>
      </trkpt>
      <trkpt lat="43.25086" lon="0.11224">
        <ele>309.2</ele>
        <time>2011-09-10T17:06:23Z</time>
      </trkpt>
      <trkpt lat="43.25121" lon="0.11237">
        <ele>311.12</ele>
        <time>2011-09-10T17:06:34Z</time>
      </trkpt>
      <trkpt lat="43.25123" lon="0.11238">
        <ele>311.12</ele>
        <time>2011-09-10T17:06:35Z</time>
      </trkpt>
      <trkpt lat="43.25129" lon="0.11241">
        <ele>311.12</ele>
        <time>2011-09-10T17:06:38Z</time>
      </trkpt>
      <trkpt lat="43.2513" lon="0.11243">
        <ele>313.05</ele>
        <time>2011-09-10T17:06:39Z</time>
      </trkpt>
      <trkpt lat="43.25132" lon="0.11244">
        <ele>313.53</ele>
        <time>2011-09-10T17:06:40Z</time>
      </trkpt>
      <trkpt lat="43.25134" lon="0.11246">
        <ele>312.57</ele>
        <time>2011-09-10T17:06:41Z</time>
      </trkpt>
      <trkpt lat="43.25136" lon="0.11249">
        <ele>313.05</ele>
        <time>2011-09-10T17:06:42Z</time>
      </trkpt>
      <trkpt lat="43.25137" lon="0.1125">
        <ele>312.57</ele>
        <time>2011-09-10T17:06:43Z</time>
      </trkpt>
      <trkpt lat="43.25139" lon="0.11252">
        <ele>313.53</ele>
        <time>2011-09-10T17:06:44Z</time>
      </trkpt>
      <trkpt lat="43.25141" lon="0.11254">
        <ele>314.01</ele>
        <time>2011-09-10T17:06:45Z</time>
      </trkpt>
      <trkpt lat="43.25142" lon="0.11255">
        <ele>313.53</ele>
        <time>2011-09-10T17:06:46Z</time>
      </trkpt>
      <trkpt lat="43.25145" lon="0.11256">
        <ele>313.53</ele>
        <time>2011-09-10T17:06:48Z</time>
      </trkpt>
      <trkpt lat="43.25147" lon="0.11257">
        <ele>313.53</ele>
        <time>2011-09-10T17:06:49Z</time>
      </trkpt>
      <trkpt lat="43.25149" lon="0.11258">
        <ele>313.53</ele>
        <time>2011-09-10T17:06:50Z</time>
      </trkpt>
      <trkpt lat="43.2515" lon="0.11259">
        <ele>313.53</ele>
        <time>2011-09-10T17:06:51Z</time>
      </trkpt>
      <trkpt lat="43.2515" lon="0.11263">
        <ele>313.53</ele>
        <time>2011-09-10T17:06:54Z</time>
      </trkpt>
      <trkpt lat="43.2515" lon="0.11266">
        <ele>314.49</ele>
        <time>2011-09-10T17:06:55Z</time>
      </trkpt>
      <trkpt lat="43.2515" lon="0.11268">
        <ele>314.49</ele>
        <time>2011-09-10T17:06:56Z</time>
      </trkpt>
      <trkpt lat="43.25151" lon="0.1127">
        <ele>314.97</ele>
        <time>2011-09-10T17:06:57Z</time>
      </trkpt>
      <trkpt lat="43.25152" lon="0.11271">
        <ele>314.97</ele>
        <time>2011-09-10T17:06:58Z</time>
      </trkpt>
      <trkpt lat="43.25153" lon="0.11273">
        <ele>314.97</ele>
        <time>2011-09-10T17:06:59Z</time>
      </trkpt>
      <trkpt lat="43.25154" lon="0.11275">
        <ele>314.97</ele>
        <time>2011-09-10T17:07:00Z</time>
      </trkpt>
      <trkpt lat="43.25175" lon="0.11288">
        <ele>316.89</ele>
        <time>2011-09-10T17:07:12Z</time>
      </trkpt>
      <trkpt lat="43.25202" lon="0.11295">
        <ele>319.3</ele>
        <time>2011-09-10T17:07:25Z</time>
      </trkpt>
      <trkpt lat="43.25236" lon="0.11299">
        <ele>321.22</ele>
        <time>2011-09-10T17:07:41Z</time>
      </trkpt>
      <trkpt lat="43.25263" lon="0.11305">
        <ele>322.66</ele>
        <time>2011-09-10T17:07:55Z</time>
      </trkpt>
      <trkpt lat="43.25292" lon="0.1132">
        <ele>325.54</ele>
        <time>2011-09-10T17:08:10Z</time>
      </trkpt>
      <trkpt lat="43.253" lon="0.11354">
        <ele>327.95</ele>
        <time>2011-09-10T17:08:25Z</time>
      </trkpt>
      <trkpt lat="43.25287" lon="0.1139">
        <ele>329.39</ele>
        <time>2011-09-10T17:08:39Z</time>
      </trkpt>
      <trkpt lat="43.25285" lon="0.11404">
        <ele>330.35</ele>
        <time>2011-09-10T17:08:46Z</time>
      </trkpt>
      <trkpt lat="43.25285" lon="0.11406">
        <ele>330.83</ele>
        <time>2011-09-10T17:08:47Z</time>
      </trkpt>
      <trkpt lat="43.25285" lon="0.11407">
        <ele>330.35</ele>
        <time>2011-09-10T17:08:48Z</time>
      </trkpt>
      <trkpt lat="43.25286" lon="0.11409">
        <ele>330.35</ele>
        <time>2011-09-10T17:08:49Z</time>
      </trkpt>
      <trkpt lat="43.25286" lon="0.1141">
        <ele>330.35</ele>
        <time>2011-09-10T17:08:50Z</time>
      </trkpt>
      <trkpt lat="43.25286" lon="0.11412">
        <ele>330.35</ele>
        <time>2011-09-10T17:08:51Z</time>
      </trkpt>
      <trkpt lat="43.25286" lon="0.11413">
        <ele>330.83</ele>
        <time>2011-09-10T17:08:52Z</time>
      </trkpt>
      <trkpt lat="43.25292" lon="0.1142">
        <ele>330.35</ele>
        <time>2011-09-10T17:09:01Z</time>
      </trkpt>
      <trkpt lat="43.25293" lon="0.11421">
        <ele>330.35</ele>
        <time>2011-09-10T17:09:02Z</time>
      </trkpt>
      <trkpt lat="43.25307" lon="0.11449">
        <ele>329.87</ele>
        <time>2011-09-10T17:09:14Z</time>
      </trkpt>
      <trkpt lat="43.25309" lon="0.1145">
        <ele>329.87</ele>
        <time>2011-09-10T17:09:15Z</time>
      </trkpt>
      <trkpt lat="43.25311" lon="0.11451">
        <ele>329.87</ele>
        <time>2011-09-10T17:09:16Z</time>
      </trkpt>
      <trkpt lat="43.25314" lon="0.11453">
        <ele>330.35</ele>
        <time>2011-09-10T17:09:17Z</time>
      </trkpt>
      <trkpt lat="43.25316" lon="0.11455">
        <ele>329.87</ele>
        <time>2011-09-10T17:09:18Z</time>
      </trkpt>
      <trkpt lat="43.25318" lon="0.11456">
        <ele>329.87</ele>
        <time>2011-09-10T17:09:19Z</time>
      </trkpt>
      <trkpt lat="43.2532" lon="0.11458">
        <ele>330.35</ele>
        <time>2011-09-10T17:09:20Z</time>
      </trkpt>
      <trkpt lat="43.25322" lon="0.1146">
        <ele>329.87</ele>
        <time>2011-09-10T17:09:21Z</time>
      </trkpt>
      <trkpt lat="43.25324" lon="0.11462">
        <ele>330.35</ele>
        <time>2011-09-10T17:09:22Z</time>
      </trkpt>
      <trkpt lat="43.25326" lon="0.11464">
        <ele>330.35</ele>
        <time>2011-09-10T17:09:23Z</time>
      </trkpt>
      <trkpt lat="43.25329" lon="0.11467">
        <ele>330.35</ele>
        <time>2011-09-10T17:09:24Z</time>
      </trkpt>
      <trkpt lat="43.25331" lon="0.11469">
        <ele>330.35</ele>
        <time>2011-09-10T17:09:25Z</time>
      </trkpt>
      <trkpt lat="43.25352" lon="0.1149">
        <ele>330.35</ele>
        <time>2011-09-10T17:09:34Z</time>
      </trkpt>
      <trkpt lat="43.25355" lon="0.1149">
        <ele>329.87</ele>
        <time>2011-09-10T17:09:35Z</time>
      </trkpt>
      <trkpt lat="43.25356" lon="0.11491">
        <ele>330.35</ele>
        <time>2011-09-10T17:09:36Z</time>
      </trkpt>
      <trkpt lat="43.25358" lon="0.11492">
        <ele>330.35</ele>
        <time>2011-09-10T17:09:37Z</time>
      </trkpt>
      <trkpt lat="43.25359" lon="0.11495">
        <ele>330.83</ele>
        <time>2011-09-10T17:09:38Z</time>
      </trkpt>
      <trkpt lat="43.25388" lon="0.11519">
        <ele>331.31</ele>
        <time>2011-09-10T17:09:50Z</time>
      </trkpt>
      <trkpt lat="43.25427" lon="0.11536">
        <ele>332.75</ele>
        <time>2011-09-10T17:10:06Z</time>
      </trkpt>
      <trkpt lat="43.25458" lon="0.11533">
        <ele>333.71</ele>
        <time>2011-09-10T17:10:20Z</time>
      </trkpt>
      <trkpt lat="43.25487" lon="0.11521">
        <ele>335.64</ele>
        <time>2011-09-10T17:10:35Z</time>
      </trkpt>
      <trkpt lat="43.2552" lon="0.1151">
        <ele>335.64</ele>
        <time>2011-09-10T17:10:49Z</time>
      </trkpt>
      <trkpt lat="43.25566" lon="0.11503">
        <ele>335.64</ele>
        <time>2011-09-10T17:11:03Z</time>
      </trkpt>
      <trkpt lat="43.25574" lon="0.11505">
        <ele>335.16</ele>
        <time>2011-09-10T17:11:05Z</time>
      </trkpt>
      <trkpt lat="43.25578" lon="0.11509">
        <ele>335.16</ele>
        <time>2011-09-10T17:11:06Z</time>
      </trkpt>
      <trkpt lat="43.25581" lon="0.11514">
        <ele>334.68</ele>
        <time>2011-09-10T17:11:07Z</time>
      </trkpt>
      <trkpt lat="43.25583" lon="0.1152">
        <ele>334.2</ele>
        <time>2011-09-10T17:11:08Z</time>
      </trkpt>
      <trkpt lat="43.25585" lon="0.11526">
        <ele>334.68</ele>
        <time>2011-09-10T17:11:09Z</time>
      </trkpt>
      <trkpt lat="43.25586" lon="0.11533">
        <ele>334.2</ele>
        <time>2011-09-10T17:11:10Z</time>
      </trkpt>
      <trkpt lat="43.25587" lon="0.11539">
        <ele>334.2</ele>
        <time>2011-09-10T17:11:11Z</time>
      </trkpt>
      <trkpt lat="43.2559" lon="0.11553">
        <ele>333.71</ele>
        <time>2011-09-10T17:11:13Z</time>
      </trkpt>
      <trkpt lat="43.25593" lon="0.11559">
        <ele>333.23</ele>
        <time>2011-09-10T17:11:14Z</time>
      </trkpt>
      <trkpt lat="43.25595" lon="0.11564">
        <ele>332.75</ele>
        <time>2011-09-10T17:11:15Z</time>
      </trkpt>
      <trkpt lat="43.25599" lon="0.11568">
        <ele>333.23</ele>
        <time>2011-09-10T17:11:16Z</time>
      </trkpt>
      <trkpt lat="43.25603" lon="0.11572">
        <ele>333.71</ele>
        <time>2011-09-10T17:11:17Z</time>
      </trkpt>
      <trkpt lat="43.25607" lon="0.11575">
        <ele>333.23</ele>
        <time>2011-09-10T17:11:18Z</time>
      </trkpt>
      <trkpt lat="43.25612" lon="0.11576">
        <ele>333.23</ele>
        <time>2011-09-10T17:11:19Z</time>
      </trkpt>
      <trkpt lat="43.25616" lon="0.11577">
        <ele>333.23</ele>
        <time>2011-09-10T17:11:20Z</time>
      </trkpt>
      <trkpt lat="43.25621" lon="0.11578">
        <ele>332.75</ele>
        <time>2011-09-10T17:11:21Z</time>
      </trkpt>
      <trkpt lat="43.25676" lon="0.11568">
        <ele>333.23</ele>
        <time>2011-09-10T17:11:35Z</time>
      </trkpt>
      <trkpt lat="43.25729" lon="0.11534">
        <ele>333.71</ele>
        <time>2011-09-10T17:11:51Z</time>
      </trkpt>
      <trkpt lat="43.25773" lon="0.11504">
        <ele>333.71</ele>
        <time>2011-09-10T17:12:04Z</time>
      </trkpt>
      <trkpt lat="43.25814" lon="0.11484">
        <ele>333.71</ele>
        <time>2011-09-10T17:12:17Z</time>
      </trkpt>
      <trkpt lat="43.25864" lon="0.11471">
        <ele>335.16</ele>
        <time>2011-09-10T17:12:34Z</time>
      </trkpt>
      <trkpt lat="43.25928" lon="0.11456">
        <ele>334.2</ele>
        <time>2011-09-10T17:12:47Z</time>
      </trkpt>
      <trkpt lat="43.25963" lon="0.11446">
        <ele>331.31</ele>
        <time>2011-09-10T17:12:52Z</time>
      </trkpt>
      <trkpt lat="43.26037" lon="0.11426">
        <ele>329.87</ele>
        <time>2011-09-10T17:13:02Z</time>
      </trkpt>
      <trkpt lat="43.26045" lon="0.11426">
        <ele>329.87</ele>
        <time>2011-09-10T17:13:03Z</time>
      </trkpt>
      <trkpt lat="43.26052" lon="0.11427">
        <ele>329.87</ele>
        <time>2011-09-10T17:13:04Z</time>
      </trkpt>
      <trkpt lat="43.26067" lon="0.11429">
        <ele>329.39</ele>
        <time>2011-09-10T17:13:06Z</time>
      </trkpt>
      <trkpt lat="43.26074" lon="0.11432">
        <ele>329.87</ele>
        <time>2011-09-10T17:13:07Z</time>
      </trkpt>
      <trkpt lat="43.26118" lon="0.11458">
        <ele>331.79</ele>
        <time>2011-09-10T17:13:17Z</time>
      </trkpt>
      <trkpt lat="43.26158" lon="0.11476">
        <ele>332.27</ele>
        <time>2011-09-10T17:13:32Z</time>
      </trkpt>
      <trkpt lat="43.26188" lon="0.11477">
        <ele>331.79</ele>
        <time>2011-09-10T17:13:43Z</time>
      </trkpt>
      <trkpt lat="43.26219" lon="0.11482">
        <ele>330.35</ele>
        <time>2011-09-10T17:13:50Z</time>
      </trkpt>
      <trkpt lat="43.2627" lon="0.1149">
        <ele>329.39</ele>
        <time>2011-09-10T17:14:02Z</time>
      </trkpt>
      <trkpt lat="43.26298" lon="0.11492">
        <ele>328.91</ele>
        <time>2011-09-10T17:14:10Z</time>
      </trkpt>
      <trkpt lat="43.26318" lon="0.11495">
        <ele>328.43</ele>
        <time>2011-09-10T17:14:15Z</time>
      </trkpt>
      <trkpt lat="43.26323" lon="0.11497">
        <ele>327.95</ele>
        <time>2011-09-10T17:14:16Z</time>
      </trkpt>
      <trkpt lat="43.26328" lon="0.11499">
        <ele>327.47</ele>
        <time>2011-09-10T17:14:17Z</time>
      </trkpt>
      <trkpt lat="43.26333" lon="0.115">
        <ele>326.99</ele>
        <time>2011-09-10T17:14:18Z</time>
      </trkpt>
      <trkpt lat="43.26346" lon="0.11501">
        <ele>326.5</ele>
        <time>2011-09-10T17:14:20Z</time>
      </trkpt>
      <trkpt lat="43.26352" lon="0.11502">
        <ele>326.5</ele>
        <time>2011-09-10T17:14:21Z</time>
      </trkpt>
      <trkpt lat="43.26358" lon="0.11503">
        <ele>326.02</ele>
        <time>2011-09-10T17:14:22Z</time>
      </trkpt>
      <trkpt lat="43.2642" lon="0.1153">
        <ele>323.14</ele>
        <time>2011-09-10T17:14:30Z</time>
      </trkpt>
      <trkpt lat="43.26504" lon="0.11576">
        <ele>321.22</ele>
        <time>2011-09-10T17:14:43Z</time>
      </trkpt>
      <trkpt lat="43.26568" lon="0.11607">
        <ele>322.66</ele>
        <time>2011-09-10T17:14:58Z</time>
      </trkpt>
      <trkpt lat="43.26607" lon="0.11619">
        <ele>322.66</ele>
        <time>2011-09-10T17:15:09Z</time>
      </trkpt>
      <trkpt lat="43.26654" lon="0.11631">
        <ele>322.18</ele>
        <time>2011-09-10T17:15:20Z</time>
      </trkpt>
      <trkpt lat="43.26699" lon="0.11644">
        <ele>320.74</ele>
        <time>2011-09-10T17:15:30Z</time>
      </trkpt>
      <trkpt lat="43.26703" lon="0.11646">
        <ele>320.74</ele>
        <time>2011-09-10T17:15:31Z</time>
      </trkpt>
      <trkpt lat="43.26708" lon="0.11647">
        <ele>320.74</ele>
        <time>2011-09-10T17:15:32Z</time>
      </trkpt>
      <trkpt lat="43.26762" lon="0.11668">
        <ele>317.37</ele>
        <time>2011-09-10T17:15:42Z</time>
      </trkpt>
      <trkpt lat="43.26793" lon="0.11678">
        <ele>316.89</ele>
        <time>2011-09-10T17:15:47Z</time>
      </trkpt>
      <trkpt lat="43.26873" lon="0.1171">
        <ele>314.49</ele>
        <time>2011-09-10T17:16:01Z</time>
      </trkpt>
      <trkpt lat="43.26889" lon="0.11718">
        <ele>314.01</ele>
        <time>2011-09-10T17:16:04Z</time>
      </trkpt>
      <trkpt lat="43.26904" lon="0.11725">
        <ele>314.01</ele>
        <time>2011-09-10T17:16:07Z</time>
      </trkpt>
      <trkpt lat="43.26974" lon="0.11758">
        <ele>311.6</ele>
        <time>2011-09-10T17:16:22Z</time>
      </trkpt>
      <trkpt lat="43.27055" lon="0.11797">
        <ele>311.12</ele>
        <time>2011-09-10T17:16:36Z</time>
      </trkpt>
      <trkpt lat="43.27146" lon="0.11844">
        <ele>313.53</ele>
        <time>2011-09-10T17:16:51Z</time>
      </trkpt>
      <trkpt lat="43.27155" lon="0.1185">
        <ele>313.05</ele>
        <time>2011-09-10T17:16:53Z</time>
      </trkpt>
      <trkpt lat="43.2716" lon="0.11853">
        <ele>313.53</ele>
        <time>2011-09-10T17:16:54Z</time>
      </trkpt>
      <trkpt lat="43.2719" lon="0.11868">
        <ele>312.09</ele>
        <time>2011-09-10T17:17:04Z</time>
      </trkpt>
      <trkpt lat="43.2719" lon="0.11868">
        <ele>311.6</ele>
        <time>2011-09-10T17:17:21Z</time>
      </trkpt>
      <trkpt lat="43.2719" lon="0.11872">
        <ele>311.12</ele>
        <time>2011-09-10T17:17:32Z</time>
      </trkpt>
      <trkpt lat="43.2719" lon="0.11872">
        <ele>311.12</ele>
        <time>2011-09-10T17:19:24Z</time>
      </trkpt>
      <trkpt lat="43.27192" lon="0.1187">
        <ele>311.12</ele>
        <time>2011-09-10T17:19:27Z</time>
      </trkpt>
      <trkpt lat="43.27199" lon="0.1187">
        <ele>311.6</ele>
        <time>2011-09-10T17:19:31Z</time>
      </trkpt>
      <trkpt lat="43.27263" lon="0.11884">
        <ele>309.68</ele>
        <time>2011-09-10T17:19:45Z</time>
      </trkpt>
      <trkpt lat="43.27269" lon="0.11884">
        <ele>309.68</ele>
        <time>2011-09-10T17:19:46Z</time>
      </trkpt>
      <trkpt lat="43.2735" lon="0.11896">
        <ele>305.84</ele>
        <time>2011-09-10T17:19:59Z</time>
      </trkpt>
      <trkpt lat="43.27363" lon="0.11901">
        <ele>305.36</ele>
        <time>2011-09-10T17:20:01Z</time>
      </trkpt>
      <trkpt lat="43.2737" lon="0.11905">
        <ele>305.36</ele>
        <time>2011-09-10T17:20:02Z</time>
      </trkpt>
      <trkpt lat="43.27377" lon="0.11909">
        <ele>304.88</ele>
        <time>2011-09-10T17:20:03Z</time>
      </trkpt>
      <trkpt lat="43.27384" lon="0.11914">
        <ele>304.88</ele>
        <time>2011-09-10T17:20:04Z</time>
      </trkpt>
      <trkpt lat="43.2739" lon="0.1192">
        <ele>305.36</ele>
        <time>2011-09-10T17:20:05Z</time>
      </trkpt>
      <trkpt lat="43.27397" lon="0.11927">
        <ele>304.88</ele>
        <time>2011-09-10T17:20:06Z</time>
      </trkpt>
      <trkpt lat="43.27455" lon="0.11971">
        <ele>301.51</ele>
        <time>2011-09-10T17:20:14Z</time>
      </trkpt>
      <trkpt lat="43.27463" lon="0.11975">
        <ele>301.51</ele>
        <time>2011-09-10T17:20:15Z</time>
      </trkpt>
      <trkpt lat="43.27544" lon="0.1204">
        <ele>299.11</ele>
        <time>2011-09-10T17:20:27Z</time>
      </trkpt>
      <trkpt lat="43.27583" lon="0.12082">
        <ele>298.63</ele>
        <time>2011-09-10T17:20:35Z</time>
      </trkpt>
      <trkpt lat="43.2765" lon="0.12138">
        <ele>296.22</ele>
        <time>2011-09-10T17:20:48Z</time>
      </trkpt>
      <trkpt lat="43.2768" lon="0.1216">
        <ele>295.26</ele>
        <time>2011-09-10T17:20:53Z</time>
      </trkpt>
      <trkpt lat="43.27686" lon="0.12164">
        <ele>294.78</ele>
        <time>2011-09-10T17:20:54Z</time>
      </trkpt>
      <trkpt lat="43.27727" lon="0.12187">
        <ele>290.94</ele>
        <time>2011-09-10T17:21:01Z</time>
      </trkpt>
      <trkpt lat="43.27729" lon="0.12188">
        <ele>290.94</ele>
        <time>2011-09-10T17:21:02Z</time>
      </trkpt>
      <trkpt lat="43.27731" lon="0.12192">
        <ele>290.94</ele>
        <time>2011-09-10T17:21:03Z</time>
      </trkpt>
      <trkpt lat="43.27732" lon="0.12196">
        <ele>290.94</ele>
        <time>2011-09-10T17:21:04Z</time>
      </trkpt>
      <trkpt lat="43.27731" lon="0.122">
        <ele>290.94</ele>
        <time>2011-09-10T17:21:05Z</time>
      </trkpt>
      <trkpt lat="43.27731" lon="0.12204">
        <ele>290.46</ele>
        <time>2011-09-10T17:21:06Z</time>
      </trkpt>
      <trkpt lat="43.2773" lon="0.12209">
        <ele>290.94</ele>
        <time>2011-09-10T17:21:07Z</time>
      </trkpt>
      <trkpt lat="43.27728" lon="0.12223">
        <ele>289.97</ele>
        <time>2011-09-10T17:21:10Z</time>
      </trkpt>
      <trkpt lat="43.27727" lon="0.12235">
        <ele>289.97</ele>
        <time>2011-09-10T17:21:12Z</time>
      </trkpt>
      <trkpt lat="43.27727" lon="0.12249">
        <ele>289.49</ele>
        <time>2011-09-10T17:21:14Z</time>
      </trkpt>
      <trkpt lat="43.27728" lon="0.12256">
        <ele>289.01</ele>
        <time>2011-09-10T17:21:15Z</time>
      </trkpt>
      <trkpt lat="43.2773" lon="0.12263">
        <ele>289.01</ele>
        <time>2011-09-10T17:21:16Z</time>
      </trkpt>
      <trkpt lat="43.27734" lon="0.1227">
        <ele>288.05</ele>
        <time>2011-09-10T17:21:17Z</time>
      </trkpt>
      <trkpt lat="43.27737" lon="0.12277">
        <ele>288.05</ele>
        <time>2011-09-10T17:21:18Z</time>
      </trkpt>
      <trkpt lat="43.27741" lon="0.12283">
        <ele>287.57</ele>
        <time>2011-09-10T17:21:19Z</time>
      </trkpt>
      <trkpt lat="43.27744" lon="0.12291">
        <ele>287.09</ele>
        <time>2011-09-10T17:21:20Z</time>
      </trkpt>
      <trkpt lat="43.27746" lon="0.12301">
        <ele>287.09</ele>
        <time>2011-09-10T17:21:21Z</time>
      </trkpt>
      <trkpt lat="43.27749" lon="0.12311">
        <ele>286.61</ele>
        <time>2011-09-10T17:21:22Z</time>
      </trkpt>
      <trkpt lat="43.27751" lon="0.12321">
        <ele>285.65</ele>
        <time>2011-09-10T17:21:23Z</time>
      </trkpt>
      <trkpt lat="43.27753" lon="0.12332">
        <ele>286.13</ele>
        <time>2011-09-10T17:21:24Z</time>
      </trkpt>
      <trkpt lat="43.27753" lon="0.12343">
        <ele>286.13</ele>
        <time>2011-09-10T17:21:25Z</time>
      </trkpt>
      <trkpt lat="43.27753" lon="0.12354">
        <ele>285.65</ele>
        <time>2011-09-10T17:21:26Z</time>
      </trkpt>
      <trkpt lat="43.27758" lon="0.12408">
        <ele>285.17</ele>
        <time>2011-09-10T17:21:31Z</time>
      </trkpt>
      <trkpt lat="43.27764" lon="0.12494">
        <ele>285.65</ele>
        <time>2011-09-10T17:21:40Z</time>
      </trkpt>
      <trkpt lat="43.27764" lon="0.12503">
        <ele>285.17</ele>
        <time>2011-09-10T17:21:41Z</time>
      </trkpt>
      <trkpt lat="43.27767" lon="0.12554">
        <ele>285.65</ele>
        <time>2011-09-10T17:21:47Z</time>
      </trkpt>
      <trkpt lat="43.27774" lon="0.12649">
        <ele>285.17</ele>
        <time>2011-09-10T17:22:00Z</time>
      </trkpt>
      <trkpt lat="43.27774" lon="0.12656">
        <ele>285.17</ele>
        <time>2011-09-10T17:22:01Z</time>
      </trkpt>
      <trkpt lat="43.27777" lon="0.12739">
        <ele>285.65</ele>
        <time>2011-09-10T17:22:15Z</time>
      </trkpt>
      <trkpt lat="43.27778" lon="0.12801">
        <ele>287.09</ele>
        <time>2011-09-10T17:22:28Z</time>
      </trkpt>
      <trkpt lat="43.27778" lon="0.12861">
        <ele>289.01</ele>
        <time>2011-09-10T17:22:43Z</time>
      </trkpt>
      <trkpt lat="43.27791" lon="0.12892">
        <ele>290.94</ele>
        <time>2011-09-10T17:22:57Z</time>
      </trkpt>
      <trkpt lat="43.27817" lon="0.12908">
        <ele>292.86</ele>
        <time>2011-09-10T17:23:12Z</time>
      </trkpt>
      <trkpt lat="43.27843" lon="0.1292">
        <ele>294.3</ele>
        <time>2011-09-10T17:23:26Z</time>
      </trkpt>
      <trkpt lat="43.27866" lon="0.12928">
        <ele>295.26</ele>
        <time>2011-09-10T17:23:40Z</time>
      </trkpt>
      <trkpt lat="43.27883" lon="0.12934">
        <ele>296.22</ele>
        <time>2011-09-10T17:23:52Z</time>
      </trkpt>
      <trkpt lat="43.27885" lon="0.12935">
        <ele>296.22</ele>
        <time>2011-09-10T17:23:53Z</time>
      </trkpt>
      <trkpt lat="43.27886" lon="0.12935">
        <ele>296.7</ele>
        <time>2011-09-10T17:23:54Z</time>
      </trkpt>
      <trkpt lat="43.27888" lon="0.12936">
        <ele>296.22</ele>
        <time>2011-09-10T17:23:55Z</time>
      </trkpt>
      <trkpt lat="43.2789" lon="0.12937">
        <ele>296.7</ele>
        <time>2011-09-10T17:23:56Z</time>
      </trkpt>
      <trkpt lat="43.27891" lon="0.12939">
        <ele>296.7</ele>
        <time>2011-09-10T17:23:57Z</time>
      </trkpt>
      <trkpt lat="43.27912" lon="0.12952">
        <ele>298.15</ele>
        <time>2011-09-10T17:24:09Z</time>
      </trkpt>
      <trkpt lat="43.2794" lon="0.12962">
        <ele>298.63</ele>
        <time>2011-09-10T17:24:24Z</time>
      </trkpt>
      <trkpt lat="43.27954" lon="0.12967">
        <ele>299.59</ele>
        <time>2011-09-10T17:24:33Z</time>
      </trkpt>
      <trkpt lat="43.27956" lon="0.12968">
        <ele>300.07</ele>
        <time>2011-09-10T17:24:34Z</time>
      </trkpt>
      <trkpt lat="43.27957" lon="0.12969">
        <ele>300.07</ele>
        <time>2011-09-10T17:24:35Z</time>
      </trkpt>
      <trkpt lat="43.27959" lon="0.1297">
        <ele>300.07</ele>
        <time>2011-09-10T17:24:36Z</time>
      </trkpt>
      <trkpt lat="43.27961" lon="0.12971">
        <ele>299.59</ele>
        <time>2011-09-10T17:24:37Z</time>
      </trkpt>
      <trkpt lat="43.27987" lon="0.12982">
        <ele>301.51</ele>
        <time>2011-09-10T17:24:53Z</time>
      </trkpt>
      <trkpt lat="43.28005" lon="0.12989">
        <ele>302.95</ele>
        <time>2011-09-10T17:25:09Z</time>
      </trkpt>
      <trkpt lat="43.2802" lon="0.13">
        <ele>304.39</ele>
        <time>2011-09-10T17:25:23Z</time>
      </trkpt>
      <trkpt lat="43.28035" lon="0.1302">
        <ele>304.39</ele>
        <time>2011-09-10T17:25:34Z</time>
      </trkpt>
      <trkpt lat="43.28072" lon="0.13042">
        <ele>304.88</ele>
        <time>2011-09-10T17:25:49Z</time>
      </trkpt>
      <trkpt lat="43.28096" lon="0.13046">
        <ele>305.84</ele>
        <time>2011-09-10T17:26:01Z</time>
      </trkpt>
      <trkpt lat="43.28098" lon="0.13047">
        <ele>305.84</ele>
        <time>2011-09-10T17:26:02Z</time>
      </trkpt>
      <trkpt lat="43.28122" lon="0.13057">
        <ele>306.8</ele>
        <time>2011-09-10T17:26:14Z</time>
      </trkpt>
      <trkpt lat="43.28124" lon="0.13058">
        <ele>307.28</ele>
        <time>2011-09-10T17:26:15Z</time>
      </trkpt>
      <trkpt lat="43.28141" lon="0.13075">
        <ele>308.24</ele>
        <time>2011-09-10T17:26:27Z</time>
      </trkpt>
      <trkpt lat="43.2816" lon="0.13109">
        <ele>310.16</ele>
        <time>2011-09-10T17:26:39Z</time>
      </trkpt>
      <trkpt lat="43.28203" lon="0.13141">
        <ele>313.05</ele>
        <time>2011-09-10T17:26:54Z</time>
      </trkpt>
      <trkpt lat="43.28233" lon="0.13155">
        <ele>314.49</ele>
        <time>2011-09-10T17:27:06Z</time>
      </trkpt>
      <trkpt lat="43.28267" lon="0.1317">
        <ele>316.89</ele>
        <time>2011-09-10T17:27:21Z</time>
      </trkpt>
      <trkpt lat="43.28279" lon="0.13194">
        <ele>318.81</ele>
        <time>2011-09-10T17:27:34Z</time>
      </trkpt>
      <trkpt lat="43.28278" lon="0.13201">
        <ele>319.78</ele>
        <time>2011-09-10T17:27:38Z</time>
      </trkpt>
      <trkpt lat="43.28276" lon="0.13208">
        <ele>320.74</ele>
        <time>2011-09-10T17:27:42Z</time>
      </trkpt>
      <trkpt lat="43.28264" lon="0.1322">
        <ele>321.22</ele>
        <time>2011-09-10T17:27:56Z</time>
      </trkpt>
      <trkpt lat="43.28264" lon="0.13221">
        <ele>321.7</ele>
        <time>2011-09-10T17:27:57Z</time>
      </trkpt>
      <trkpt lat="43.2826" lon="0.13226">
        <ele>322.18</ele>
        <time>2011-09-10T17:28:06Z</time>
      </trkpt>
      <trkpt lat="43.28264" lon="0.13227">
        <ele>321.7</ele>
        <time>2011-09-10T17:28:15Z</time>
      </trkpt>
      <trkpt lat="43.28252" lon="0.13232">
        <ele>322.18</ele>
        <time>2011-09-10T17:28:27Z</time>
      </trkpt>
      <trkpt lat="43.28234" lon="0.13243">
        <ele>323.14</ele>
        <time>2011-09-10T17:28:43Z</time>
      </trkpt>
      <trkpt lat="43.28228" lon="0.13249">
        <ele>324.1</ele>
        <time>2011-09-10T17:28:50Z</time>
      </trkpt>
      <trkpt lat="43.28224" lon="0.13253">
        <ele>323.62</ele>
        <time>2011-09-10T17:28:54Z</time>
      </trkpt>
      <trkpt lat="43.28219" lon="0.13258">
        <ele>324.1</ele>
        <time>2011-09-10T17:28:58Z</time>
      </trkpt>
      <trkpt lat="43.28209" lon="0.13274">
        <ele>325.54</ele>
        <time>2011-09-10T17:29:12Z</time>
      </trkpt>
      <trkpt lat="43.28206" lon="0.13297">
        <ele>326.02</ele>
        <time>2011-09-10T17:29:26Z</time>
      </trkpt>
      <trkpt lat="43.2821" lon="0.13309">
        <ele>325.06</ele>
        <time>2011-09-10T17:29:31Z</time>
      </trkpt>
      <trkpt lat="43.2824" lon="0.13333">
        <ele>322.66</ele>
        <time>2011-09-10T17:29:42Z</time>
      </trkpt>
      <trkpt lat="43.28249" lon="0.13339">
        <ele>322.66</ele>
        <time>2011-09-10T17:29:44Z</time>
      </trkpt>
      <trkpt lat="43.28288" lon="0.13362">
        <ele>320.26</ele>
        <time>2011-09-10T17:29:50Z</time>
      </trkpt>
      <trkpt lat="43.28325" lon="0.13396">
        <ele>316.89</ele>
        <time>2011-09-10T17:29:55Z</time>
      </trkpt>
      <trkpt lat="43.28332" lon="0.13404">
        <ele>315.93</ele>
        <time>2011-09-10T17:29:56Z</time>
      </trkpt>
      <trkpt lat="43.28337" lon="0.13413">
        <ele>315.93</ele>
        <time>2011-09-10T17:29:57Z</time>
      </trkpt>
      <trkpt lat="43.28342" lon="0.13425">
        <ele>315.45</ele>
        <time>2011-09-10T17:29:58Z</time>
      </trkpt>
      <trkpt lat="43.28346" lon="0.13439">
        <ele>314.97</ele>
        <time>2011-09-10T17:29:59Z</time>
      </trkpt>
      <trkpt lat="43.28349" lon="0.13452">
        <ele>314.49</ele>
        <time>2011-09-10T17:30:00Z</time>
      </trkpt>
      <trkpt lat="43.28353" lon="0.13476">
        <ele>314.97</ele>
        <time>2011-09-10T17:30:02Z</time>
      </trkpt>
      <trkpt lat="43.2836" lon="0.13495">
        <ele>315.93</ele>
        <time>2011-09-10T17:30:04Z</time>
      </trkpt>
      <trkpt lat="43.28364" lon="0.13503">
        <ele>315.93</ele>
        <time>2011-09-10T17:30:05Z</time>
      </trkpt>
      <trkpt lat="43.2837" lon="0.13508">
        <ele>315.93</ele>
        <time>2011-09-10T17:30:06Z</time>
      </trkpt>
      <trkpt lat="43.28377" lon="0.13511">
        <ele>316.41</ele>
        <time>2011-09-10T17:30:07Z</time>
      </trkpt>
      <trkpt lat="43.28383" lon="0.13513">
        <ele>316.41</ele>
        <time>2011-09-10T17:30:08Z</time>
      </trkpt>
      <trkpt lat="43.28389" lon="0.13515">
        <ele>316.41</ele>
        <time>2011-09-10T17:30:09Z</time>
      </trkpt>
      <trkpt lat="43.28432" lon="0.13525">
        <ele>319.3</ele>
        <time>2011-09-10T17:30:20Z</time>
      </trkpt>
      <trkpt lat="43.28454" lon="0.13542">
        <ele>320.74</ele>
        <time>2011-09-10T17:30:30Z</time>
      </trkpt>
      <trkpt lat="43.28456" lon="0.13544">
        <ele>321.22</ele>
        <time>2011-09-10T17:30:31Z</time>
      </trkpt>
      <trkpt lat="43.28476" lon="0.13573">
        <ele>323.14</ele>
        <time>2011-09-10T17:30:43Z</time>
      </trkpt>
      <trkpt lat="43.28487" lon="0.13606">
        <ele>324.58</ele>
        <time>2011-09-10T17:30:54Z</time>
      </trkpt>
      <trkpt lat="43.28487" lon="0.13646">
        <ele>326.99</ele>
        <time>2011-09-10T17:31:10Z</time>
      </trkpt>
      <trkpt lat="43.28487" lon="0.13678">
        <ele>328.91</ele>
        <time>2011-09-10T17:31:24Z</time>
      </trkpt>
      <trkpt lat="43.28485" lon="0.13703">
        <ele>331.31</ele>
        <time>2011-09-10T17:31:35Z</time>
      </trkpt>
      <trkpt lat="43.28485" lon="0.13705">
        <ele>331.31</ele>
        <time>2011-09-10T17:31:36Z</time>
      </trkpt>
      <trkpt lat="43.28485" lon="0.13707">
        <ele>331.31</ele>
        <time>2011-09-10T17:31:37Z</time>
      </trkpt>
      <trkpt lat="43.28485" lon="0.1371">
        <ele>331.31</ele>
        <time>2011-09-10T17:31:38Z</time>
      </trkpt>
      <trkpt lat="43.28485" lon="0.13712">
        <ele>330.83</ele>
        <time>2011-09-10T17:31:39Z</time>
      </trkpt>
      <trkpt lat="43.28486" lon="0.13715">
        <ele>331.79</ele>
        <time>2011-09-10T17:31:40Z</time>
      </trkpt>
      <trkpt lat="43.28486" lon="0.13717">
        <ele>331.79</ele>
        <time>2011-09-10T17:31:41Z</time>
      </trkpt>
      <trkpt lat="43.28486" lon="0.13719">
        <ele>332.27</ele>
        <time>2011-09-10T17:31:42Z</time>
      </trkpt>
      <trkpt lat="43.28486" lon="0.13725">
        <ele>332.75</ele>
        <time>2011-09-10T17:31:46Z</time>
      </trkpt>
      <trkpt lat="43.28484" lon="0.13728">
        <ele>333.23</ele>
        <time>2011-09-10T17:31:48Z</time>
      </trkpt>
      <trkpt lat="43.28484" lon="0.13736">
        <ele>332.75</ele>
        <time>2011-09-10T17:32:02Z</time>
      </trkpt>
      <trkpt lat="43.28485" lon="0.13738">
        <ele>333.23</ele>
        <time>2011-09-10T17:32:03Z</time>
      </trkpt>
      <trkpt lat="43.28485" lon="0.13739">
        <ele>333.23</ele>
        <time>2011-09-10T17:32:04Z</time>
      </trkpt>
      <trkpt lat="43.28485" lon="0.13741">
        <ele>333.23</ele>
        <time>2011-09-10T17:32:05Z</time>
      </trkpt>
      <trkpt lat="43.28485" lon="0.13742">
        <ele>333.71</ele>
        <time>2011-09-10T17:32:06Z</time>
      </trkpt>
      <trkpt lat="43.28485" lon="0.13744">
        <ele>334.2</ele>
        <time>2011-09-10T17:32:07Z</time>
      </trkpt>
      <trkpt lat="43.28485" lon="0.13745">
        <ele>333.71</ele>
        <time>2011-09-10T17:32:08Z</time>
      </trkpt>
      <trkpt lat="43.28485" lon="0.13747">
        <ele>333.71</ele>
        <time>2011-09-10T17:32:09Z</time>
      </trkpt>
      <trkpt lat="43.28485" lon="0.13749">
        <ele>334.2</ele>
        <time>2011-09-10T17:32:10Z</time>
      </trkpt>
      <trkpt lat="43.28492" lon="0.13779">
        <ele>335.64</ele>
        <time>2011-09-10T17:32:23Z</time>
      </trkpt>
      <trkpt lat="43.2849" lon="0.13813">
        <ele>337.08</ele>
        <time>2011-09-10T17:32:36Z</time>
      </trkpt>
      <trkpt lat="43.28487" lon="0.13853">
        <ele>339.48</ele>
        <time>2011-09-10T17:32:52Z</time>
      </trkpt>
      <trkpt lat="43.28485" lon="0.13888">
        <ele>340.44</ele>
        <time>2011-09-10T17:33:06Z</time>
      </trkpt>
      <trkpt lat="43.2848" lon="0.13917">
        <ele>341.89</ele>
        <time>2011-09-10T17:33:19Z</time>
      </trkpt>
      <trkpt lat="43.28475" lon="0.13954">
        <ele>343.33</ele>
        <time>2011-09-10T17:33:33Z</time>
      </trkpt>
      <trkpt lat="43.28473" lon="0.13994">
        <ele>344.77</ele>
        <time>2011-09-10T17:33:48Z</time>
      </trkpt>
      <trkpt lat="43.28475" lon="0.14046">
        <ele>347.17</ele>
        <time>2011-09-10T17:34:07Z</time>
      </trkpt>
      <trkpt lat="43.28473" lon="0.14054">
        <ele>347.17</ele>
        <time>2011-09-10T17:34:11Z</time>
      </trkpt>
      <trkpt lat="43.28471" lon="0.14056">
        <ele>348.13</ele>
        <time>2011-09-10T17:34:12Z</time>
      </trkpt>
      <trkpt lat="43.2847" lon="0.14057">
        <ele>347.65</ele>
        <time>2011-09-10T17:34:13Z</time>
      </trkpt>
      <trkpt lat="43.28468" lon="0.14058">
        <ele>347.65</ele>
        <time>2011-09-10T17:34:14Z</time>
      </trkpt>
      <trkpt lat="43.28466" lon="0.14058">
        <ele>347.17</ele>
        <time>2011-09-10T17:34:15Z</time>
      </trkpt>
      <trkpt lat="43.28464" lon="0.14057">
        <ele>347.65</ele>
        <time>2011-09-10T17:34:16Z</time>
      </trkpt>
      <trkpt lat="43.28462" lon="0.14057">
        <ele>348.13</ele>
        <time>2011-09-10T17:34:17Z</time>
      </trkpt>
      <trkpt lat="43.2846" lon="0.14056">
        <ele>347.65</ele>
        <time>2011-09-10T17:34:18Z</time>
      </trkpt>
      <trkpt lat="43.28459" lon="0.14055">
        <ele>348.13</ele>
        <time>2011-09-10T17:34:19Z</time>
      </trkpt>
      <trkpt lat="43.28458" lon="0.14054">
        <ele>348.13</ele>
        <time>2011-09-10T17:34:20Z</time>
      </trkpt>
      <trkpt lat="43.28458" lon="0.14052">
        <ele>348.13</ele>
        <time>2011-09-10T17:34:21Z</time>
      </trkpt>
      <trkpt lat="43.28458" lon="0.1405">
        <ele>347.65</ele>
        <time>2011-09-10T17:34:22Z</time>
      </trkpt>
      <trkpt lat="43.2846" lon="0.14005">
        <ele>347.17</ele>
        <time>2011-09-10T17:34:35Z</time>
      </trkpt>
      <trkpt lat="43.28461" lon="0.14">
        <ele>346.69</ele>
        <time>2011-09-10T17:34:48Z</time>
      </trkpt>
      <trkpt lat="43.28461" lon="0.14">
        <ele>343.33</ele>
        <time>2011-09-10T17:45:53Z</time>
      </trkpt>
      <trkpt lat="43.2846" lon="0.14002">
        <ele>343.33</ele>
        <time>2011-09-10T17:47:29Z</time>
      </trkpt>
      <trkpt lat="43.2846" lon="0.14004">
        <ele>343.81</ele>
        <time>2011-09-10T17:47:30Z</time>
      </trkpt>
      <trkpt lat="43.2846" lon="0.14005">
        <ele>343.33</ele>
        <time>2011-09-10T17:47:31Z</time>
      </trkpt>
      <trkpt lat="43.28457" lon="0.14051">
        <ele>344.77</ele>
        <time>2011-09-10T17:47:46Z</time>
      </trkpt>
      <trkpt lat="43.28456" lon="0.14056">
        <ele>345.25</ele>
        <time>2011-09-10T17:47:48Z</time>
      </trkpt>
      <trkpt lat="43.28454" lon="0.14058">
        <ele>344.77</ele>
        <time>2011-09-10T17:47:49Z</time>
      </trkpt>
      <trkpt lat="43.28453" lon="0.14059">
        <ele>344.77</ele>
        <time>2011-09-10T17:47:50Z</time>
      </trkpt>
      <trkpt lat="43.28451" lon="0.1406">
        <ele>344.77</ele>
        <time>2011-09-10T17:47:51Z</time>
      </trkpt>
      <trkpt lat="43.28449" lon="0.1406">
        <ele>344.77</ele>
        <time>2011-09-10T17:47:52Z</time>
      </trkpt>
      <trkpt lat="43.28447" lon="0.1406">
        <ele>344.77</ele>
        <time>2011-09-10T17:47:53Z</time>
      </trkpt>
      <trkpt lat="43.28446" lon="0.1406">
        <ele>344.77</ele>
        <time>2011-09-10T17:47:54Z</time>
      </trkpt>
      <trkpt lat="43.28444" lon="0.14059">
        <ele>345.25</ele>
        <time>2011-09-10T17:47:55Z</time>
      </trkpt>
      <trkpt lat="43.28442" lon="0.14059">
        <ele>344.77</ele>
        <time>2011-09-10T17:47:56Z</time>
      </trkpt>
      <trkpt lat="43.2844" lon="0.14059">
        <ele>344.77</ele>
        <time>2011-09-10T17:47:57Z</time>
      </trkpt>
      <trkpt lat="43.28437" lon="0.14059">
        <ele>345.25</ele>
        <time>2011-09-10T17:47:58Z</time>
      </trkpt>
      <trkpt lat="43.28408" lon="0.14053">
        <ele>347.17</ele>
        <time>2011-09-10T17:48:14Z</time>
      </trkpt>
      <trkpt lat="43.2839" lon="0.14042">
        <ele>348.13</ele>
        <time>2011-09-10T17:48:27Z</time>
      </trkpt>
      <trkpt lat="43.28366" lon="0.14029">
        <ele>351.02</ele>
        <time>2011-09-10T17:48:44Z</time>
      </trkpt>
      <trkpt lat="43.28344" lon="0.14017">
        <ele>352.94</ele>
        <time>2011-09-10T17:48:58Z</time>
      </trkpt>
      <trkpt lat="43.28324" lon="0.14007">
        <ele>353.9</ele>
        <time>2011-09-10T17:49:12Z</time>
      </trkpt>
      <trkpt lat="43.28308" lon="0.14002">
        <ele>354.86</ele>
        <time>2011-09-10T17:49:23Z</time>
      </trkpt>
      <trkpt lat="43.28299" lon="0.14001">
        <ele>354.38</ele>
        <time>2011-09-10T17:49:28Z</time>
      </trkpt>
      <trkpt lat="43.28297" lon="0.14002">
        <ele>354.86</ele>
        <time>2011-09-10T17:49:29Z</time>
      </trkpt>
      <trkpt lat="43.28295" lon="0.14001">
        <ele>354.86</ele>
        <time>2011-09-10T17:49:30Z</time>
      </trkpt>
      <trkpt lat="43.28293" lon="0.14001">
        <ele>354.86</ele>
        <time>2011-09-10T17:49:31Z</time>
      </trkpt>
      <trkpt lat="43.28292" lon="0.14001">
        <ele>354.86</ele>
        <time>2011-09-10T17:49:32Z</time>
      </trkpt>
      <trkpt lat="43.28257" lon="0.14003">
        <ele>355.34</ele>
        <time>2011-09-10T17:49:50Z</time>
      </trkpt>
      <trkpt lat="43.28226" lon="0.14002">
        <ele>356.31</ele>
        <time>2011-09-10T17:50:07Z</time>
      </trkpt>
      <trkpt lat="43.28215" lon="0.14001">
        <ele>356.79</ele>
        <time>2011-09-10T17:50:13Z</time>
      </trkpt>
      <trkpt lat="43.28188" lon="0.14001">
        <ele>357.75</ele>
        <time>2011-09-10T17:50:28Z</time>
      </trkpt>
      <trkpt lat="43.28157" lon="0.14001">
        <ele>358.71</ele>
        <time>2011-09-10T17:50:44Z</time>
      </trkpt>
      <trkpt lat="43.2811" lon="0.14">
        <ele>358.23</ele>
        <time>2011-09-10T17:50:59Z</time>
      </trkpt>
      <trkpt lat="43.28025" lon="0.13987">
        <ele>358.23</ele>
        <time>2011-09-10T17:51:14Z</time>
      </trkpt>
      <trkpt lat="43.27963" lon="0.13962">
        <ele>359.19</ele>
        <time>2011-09-10T17:51:29Z</time>
      </trkpt>
      <trkpt lat="43.2792" lon="0.13932">
        <ele>360.63</ele>
        <time>2011-09-10T17:51:48Z</time>
      </trkpt>
      <trkpt lat="43.27895" lon="0.13911">
        <ele>361.59</ele>
        <time>2011-09-10T17:52:02Z</time>
      </trkpt>
      <trkpt lat="43.2787" lon="0.13887">
        <ele>362.55</ele>
        <time>2011-09-10T17:52:16Z</time>
      </trkpt>
      <trkpt lat="43.27848" lon="0.13864">
        <ele>363.04</ele>
        <time>2011-09-10T17:52:30Z</time>
      </trkpt>
      <trkpt lat="43.27804" lon="0.1382">
        <ele>362.55</ele>
        <time>2011-09-10T17:52:40Z</time>
      </trkpt>
      <trkpt lat="43.27727" lon="0.13774">
        <ele>362.55</ele>
        <time>2011-09-10T17:52:53Z</time>
      </trkpt>
      <trkpt lat="43.2767" lon="0.13753">
        <ele>364.48</ele>
        <time>2011-09-10T17:53:05Z</time>
      </trkpt>
      <trkpt lat="43.27635" lon="0.13742">
        <ele>367.36</ele>
        <time>2011-09-10T17:53:20Z</time>
      </trkpt>
      <trkpt lat="43.27605" lon="0.1374">
        <ele>369.28</ele>
        <time>2011-09-10T17:53:35Z</time>
      </trkpt>
      <trkpt lat="43.27583" lon="0.13736">
        <ele>372.17</ele>
        <time>2011-09-10T17:53:50Z</time>
      </trkpt>
      <trkpt lat="43.27556" lon="0.13734">
        <ele>375.05</ele>
        <time>2011-09-10T17:54:07Z</time>
      </trkpt>
      <trkpt lat="43.27555" lon="0.13733">
        <ele>375.53</ele>
        <time>2011-09-10T17:54:08Z</time>
      </trkpt>
      <trkpt lat="43.27553" lon="0.13733">
        <ele>375.53</ele>
        <time>2011-09-10T17:54:09Z</time>
      </trkpt>
      <trkpt lat="43.27552" lon="0.13732">
        <ele>375.05</ele>
        <time>2011-09-10T17:54:10Z</time>
      </trkpt>
      <trkpt lat="43.2755" lon="0.13732">
        <ele>375.53</ele>
        <time>2011-09-10T17:54:11Z</time>
      </trkpt>
      <trkpt lat="43.27549" lon="0.13732">
        <ele>376.01</ele>
        <time>2011-09-10T17:54:12Z</time>
      </trkpt>
      <trkpt lat="43.27547" lon="0.13732">
        <ele>376.01</ele>
        <time>2011-09-10T17:54:13Z</time>
      </trkpt>
      <trkpt lat="43.27546" lon="0.13732">
        <ele>376.01</ele>
        <time>2011-09-10T17:54:14Z</time>
      </trkpt>
      <trkpt lat="43.27538" lon="0.13731">
        <ele>376.97</ele>
        <time>2011-09-10T17:54:19Z</time>
      </trkpt>
      <trkpt lat="43.27537" lon="0.13731">
        <ele>376.49</ele>
        <time>2011-09-10T17:54:20Z</time>
      </trkpt>
      <trkpt lat="43.27535" lon="0.13731">
        <ele>376.97</ele>
        <time>2011-09-10T17:54:21Z</time>
      </trkpt>
      <trkpt lat="43.27533" lon="0.13731">
        <ele>376.97</ele>
        <time>2011-09-10T17:54:22Z</time>
      </trkpt>
      <trkpt lat="43.27532" lon="0.13731">
        <ele>376.97</ele>
        <time>2011-09-10T17:54:23Z</time>
      </trkpt>
      <trkpt lat="43.2753" lon="0.13731">
        <ele>376.97</ele>
        <time>2011-09-10T17:54:24Z</time>
      </trkpt>
      <trkpt lat="43.27514" lon="0.13732">
        <ele>377.94</ele>
        <time>2011-09-10T17:54:34Z</time>
      </trkpt>
      <trkpt lat="43.27512" lon="0.13732">
        <ele>377.45</ele>
        <time>2011-09-10T17:54:35Z</time>
      </trkpt>
      <trkpt lat="43.27511" lon="0.13732">
        <ele>377.94</ele>
        <time>2011-09-10T17:54:36Z</time>
      </trkpt>
      <trkpt lat="43.27491" lon="0.13735">
        <ele>378.42</ele>
        <time>2011-09-10T17:54:49Z</time>
      </trkpt>
      <trkpt lat="43.2749" lon="0.13735">
        <ele>378.9</ele>
        <time>2011-09-10T17:54:50Z</time>
      </trkpt>
      <trkpt lat="43.27488" lon="0.13736">
        <ele>378.42</ele>
        <time>2011-09-10T17:54:51Z</time>
      </trkpt>
      <trkpt lat="43.27487" lon="0.13736">
        <ele>378.42</ele>
        <time>2011-09-10T17:54:52Z</time>
      </trkpt>
      <trkpt lat="43.27486" lon="0.13737">
        <ele>378.42</ele>
        <time>2011-09-10T17:54:53Z</time>
      </trkpt>
      <trkpt lat="43.27484" lon="0.13737">
        <ele>378.42</ele>
        <time>2011-09-10T17:54:54Z</time>
      </trkpt>
      <trkpt lat="43.27462" lon="0.1374">
        <ele>379.38</ele>
        <time>2011-09-10T17:55:09Z</time>
      </trkpt>
      <trkpt lat="43.27454" lon="0.13741">
        <ele>379.86</ele>
        <time>2011-09-10T17:55:15Z</time>
      </trkpt>
      <trkpt lat="43.27453" lon="0.13742">
        <ele>379.86</ele>
        <time>2011-09-10T17:55:16Z</time>
      </trkpt>
      <trkpt lat="43.27452" lon="0.13742">
        <ele>380.34</ele>
        <time>2011-09-10T17:55:17Z</time>
      </trkpt>
      <trkpt lat="43.27451" lon="0.13742">
        <ele>379.86</ele>
        <time>2011-09-10T17:55:18Z</time>
      </trkpt>
      <trkpt lat="43.2745" lon="0.13742">
        <ele>380.34</ele>
        <time>2011-09-10T17:55:19Z</time>
      </trkpt>
      <trkpt lat="43.2745" lon="0.1374">
        <ele>379.86</ele>
        <time>2011-09-10T17:55:20Z</time>
      </trkpt>
      <trkpt lat="43.2745" lon="0.13739">
        <ele>380.34</ele>
        <time>2011-09-10T17:55:21Z</time>
      </trkpt>
      <trkpt lat="43.2745" lon="0.13738">
        <ele>379.86</ele>
        <time>2011-09-10T17:55:22Z</time>
      </trkpt>
      <trkpt lat="43.2745" lon="0.13736">
        <ele>380.34</ele>
        <time>2011-09-10T17:55:23Z</time>
      </trkpt>
      <trkpt lat="43.27448" lon="0.13712">
        <ele>381.3</ele>
        <time>2011-09-10T17:55:36Z</time>
      </trkpt>
      <trkpt lat="43.27448" lon="0.13709">
        <ele>381.78</ele>
        <time>2011-09-10T17:55:38Z</time>
      </trkpt>
      <trkpt lat="43.27447" lon="0.13708">
        <ele>381.78</ele>
        <time>2011-09-10T17:55:39Z</time>
      </trkpt>
      <trkpt lat="43.27447" lon="0.13706">
        <ele>381.78</ele>
        <time>2011-09-10T17:55:40Z</time>
      </trkpt>
      <trkpt lat="43.27447" lon="0.13704">
        <ele>381.78</ele>
        <time>2011-09-10T17:55:41Z</time>
      </trkpt>
      <trkpt lat="43.27447" lon="0.13702">
        <ele>381.78</ele>
        <time>2011-09-10T17:55:42Z</time>
      </trkpt>
      <trkpt lat="43.27447" lon="0.13696">
        <ele>381.78</ele>
        <time>2011-09-10T17:55:51Z</time>
      </trkpt>
      <trkpt lat="43.27448" lon="0.13699">
        <ele>381.78</ele>
        <time>2011-09-10T17:56:01Z</time>
      </trkpt>
      <trkpt lat="43.27447" lon="0.137">
        <ele>381.3</ele>
        <time>2011-09-10T17:58:56Z</time>
      </trkpt>
      <trkpt lat="43.27447" lon="0.13703">
        <ele>381.3</ele>
        <time>2011-09-10T17:58:58Z</time>
      </trkpt>
      <trkpt lat="43.27447" lon="0.13705">
        <ele>381.3</ele>
        <time>2011-09-10T17:58:59Z</time>
      </trkpt>
      <trkpt lat="43.27447" lon="0.13706">
        <ele>381.3</ele>
        <time>2011-09-10T17:59:00Z</time>
      </trkpt>
      <trkpt lat="43.27447" lon="0.13708">
        <ele>381.3</ele>
        <time>2011-09-10T17:59:01Z</time>
      </trkpt>
      <trkpt lat="43.27447" lon="0.13709">
        <ele>381.3</ele>
        <time>2011-09-10T17:59:02Z</time>
      </trkpt>
      <trkpt lat="43.27447" lon="0.13711">
        <ele>381.3</ele>
        <time>2011-09-10T17:59:03Z</time>
      </trkpt>
      <trkpt lat="43.27444" lon="0.1374">
        <ele>380.34</ele>
        <time>2011-09-10T17:59:11Z</time>
      </trkpt>
      <trkpt lat="43.27443" lon="0.13741">
        <ele>380.34</ele>
        <time>2011-09-10T17:59:12Z</time>
      </trkpt>
      <trkpt lat="43.27441" lon="0.13742">
        <ele>380.34</ele>
        <time>2011-09-10T17:59:13Z</time>
      </trkpt>
      <trkpt lat="43.2744" lon="0.13743">
        <ele>380.34</ele>
        <time>2011-09-10T17:59:14Z</time>
      </trkpt>
      <trkpt lat="43.27439" lon="0.13744">
        <ele>380.82</ele>
        <time>2011-09-10T17:59:15Z</time>
      </trkpt>
      <trkpt lat="43.27437" lon="0.13744">
        <ele>380.34</ele>
        <time>2011-09-10T17:59:16Z</time>
      </trkpt>
      <trkpt lat="43.27436" lon="0.13745">
        <ele>380.82</ele>
        <time>2011-09-10T17:59:17Z</time>
      </trkpt>
      <trkpt lat="43.27434" lon="0.13745">
        <ele>380.82</ele>
        <time>2011-09-10T17:59:18Z</time>
      </trkpt>
      <trkpt lat="43.27432" lon="0.13745">
        <ele>380.82</ele>
        <time>2011-09-10T17:59:19Z</time>
      </trkpt>
      <trkpt lat="43.27391" lon="0.13753">
        <ele>381.3</ele>
        <time>2011-09-10T17:59:32Z</time>
      </trkpt>
      <trkpt lat="43.27337" lon="0.13764">
        <ele>380.82</ele>
        <time>2011-09-10T17:59:46Z</time>
      </trkpt>
      <trkpt lat="43.27332" lon="0.13764">
        <ele>380.82</ele>
        <time>2011-09-10T17:59:47Z</time>
      </trkpt>
      <trkpt lat="43.27327" lon="0.13765">
        <ele>380.34</ele>
        <time>2011-09-10T17:59:48Z</time>
      </trkpt>
      <trkpt lat="43.27321" lon="0.13766">
        <ele>380.34</ele>
        <time>2011-09-10T17:59:49Z</time>
      </trkpt>
      <trkpt lat="43.27291" lon="0.13771">
        <ele>378.42</ele>
        <time>2011-09-10T17:59:53Z</time>
      </trkpt>
      <trkpt lat="43.27247" lon="0.1378">
        <ele>374.57</ele>
        <time>2011-09-10T17:59:58Z</time>
      </trkpt>
      <trkpt lat="43.27203" lon="0.13796">
        <ele>371.21</ele>
        <time>2011-09-10T18:00:02Z</time>
      </trkpt>
      <trkpt lat="43.27166" lon="0.1381">
        <ele>369.28</ele>
        <time>2011-09-10T18:00:05Z</time>
      </trkpt>
      <trkpt lat="43.27073" lon="0.1385">
        <ele>368.32</ele>
        <time>2011-09-10T18:00:15Z</time>
      </trkpt>
      <trkpt lat="43.27067" lon="0.13851">
        <ele>368.8</ele>
        <time>2011-09-10T18:00:16Z</time>
      </trkpt>
      <trkpt lat="43.27061" lon="0.13852">
        <ele>368.8</ele>
        <time>2011-09-10T18:00:17Z</time>
      </trkpt>
      <trkpt lat="43.2703" lon="0.13866">
        <ele>368.8</ele>
        <time>2011-09-10T18:00:26Z</time>
      </trkpt>
      <trkpt lat="43.27026" lon="0.13867">
        <ele>368.8</ele>
        <time>2011-09-10T18:00:27Z</time>
      </trkpt>
      <trkpt lat="43.27022" lon="0.13866">
        <ele>368.8</ele>
        <time>2011-09-10T18:00:28Z</time>
      </trkpt>
      <trkpt lat="43.27002" lon="0.13862">
        <ele>367.84</ele>
        <time>2011-09-10T18:00:32Z</time>
      </trkpt>
      <trkpt lat="43.26996" lon="0.1386">
        <ele>367.36</ele>
        <time>2011-09-10T18:00:33Z</time>
      </trkpt>
      <trkpt lat="43.26975" lon="0.13855">
        <ele>366.4</ele>
        <time>2011-09-10T18:00:36Z</time>
      </trkpt>
      <trkpt lat="43.26969" lon="0.13852">
        <ele>365.92</ele>
        <time>2011-09-10T18:00:37Z</time>
      </trkpt>
      <trkpt lat="43.26962" lon="0.13848">
        <ele>366.4</ele>
        <time>2011-09-10T18:00:38Z</time>
      </trkpt>
      <trkpt lat="43.26949" lon="0.13838">
        <ele>364.96</ele>
        <time>2011-09-10T18:00:40Z</time>
      </trkpt>
      <trkpt lat="43.26889" lon="0.138">
        <ele>362.07</ele>
        <time>2011-09-10T18:00:48Z</time>
      </trkpt>
      <trkpt lat="43.26862" lon="0.13785">
        <ele>360.63</ele>
        <time>2011-09-10T18:00:51Z</time>
      </trkpt>
      <trkpt lat="43.26825" lon="0.13767">
        <ele>359.19</ele>
        <time>2011-09-10T18:00:55Z</time>
      </trkpt>
      <trkpt lat="43.26798" lon="0.13771">
        <ele>358.71</ele>
        <time>2011-09-10T18:00:58Z</time>
      </trkpt>
      <trkpt lat="43.26791" lon="0.13772">
        <ele>359.19</ele>
        <time>2011-09-10T18:00:59Z</time>
      </trkpt>
      <trkpt lat="43.26773" lon="0.13775">
        <ele>359.67</ele>
        <time>2011-09-10T18:01:02Z</time>
      </trkpt>
      <trkpt lat="43.26748" lon="0.1377">
        <ele>361.59</ele>
        <time>2011-09-10T18:01:11Z</time>
      </trkpt>
      <trkpt lat="43.26721" lon="0.13753">
        <ele>362.55</ele>
        <time>2011-09-10T18:01:24Z</time>
      </trkpt>
      <trkpt lat="43.26682" lon="0.13722">
        <ele>361.59</ele>
        <time>2011-09-10T18:01:39Z</time>
      </trkpt>
      <trkpt lat="43.26627" lon="0.13681">
        <ele>362.07</ele>
        <time>2011-09-10T18:01:56Z</time>
      </trkpt>
      <trkpt lat="43.26587" lon="0.13651">
        <ele>363.52</ele>
        <time>2011-09-10T18:02:11Z</time>
      </trkpt>
      <trkpt lat="43.26547" lon="0.13621">
        <ele>365.44</ele>
        <time>2011-09-10T18:02:28Z</time>
      </trkpt>
      <trkpt lat="43.26514" lon="0.13597">
        <ele>367.36</ele>
        <time>2011-09-10T18:02:43Z</time>
      </trkpt>
      <trkpt lat="43.2648" lon="0.13571">
        <ele>368.32</ele>
        <time>2011-09-10T18:02:58Z</time>
      </trkpt>
      <trkpt lat="43.2645" lon="0.13548">
        <ele>369.28</ele>
        <time>2011-09-10T18:03:13Z</time>
      </trkpt>
      <trkpt lat="43.26427" lon="0.1353">
        <ele>370.24</ele>
        <time>2011-09-10T18:03:27Z</time>
      </trkpt>
      <trkpt lat="43.26426" lon="0.13529">
        <ele>370.73</ele>
        <time>2011-09-10T18:03:47Z</time>
      </trkpt>
      <trkpt lat="43.26424" lon="0.13529">
        <ele>370.24</ele>
        <time>2011-09-10T18:04:23Z</time>
      </trkpt>
      <trkpt lat="43.26423" lon="0.13529">
        <ele>370.24</ele>
        <time>2011-09-10T18:04:24Z</time>
      </trkpt>
      <trkpt lat="43.26421" lon="0.13529">
        <ele>370.73</ele>
        <time>2011-09-10T18:04:25Z</time>
      </trkpt>
      <trkpt lat="43.26387" lon="0.13516">
        <ele>370.24</ele>
        <time>2011-09-10T18:04:36Z</time>
      </trkpt>
      <trkpt lat="43.26383" lon="0.13514">
        <ele>369.76</ele>
        <time>2011-09-10T18:04:37Z</time>
      </trkpt>
      <trkpt lat="43.26379" lon="0.13513">
        <ele>369.76</ele>
        <time>2011-09-10T18:04:38Z</time>
      </trkpt>
      <trkpt lat="43.26305" lon="0.13496">
        <ele>370.24</ele>
        <time>2011-09-10T18:04:55Z</time>
      </trkpt>
      <trkpt lat="43.26261" lon="0.13492">
        <ele>370.73</ele>
        <time>2011-09-10T18:05:07Z</time>
      </trkpt>
      <trkpt lat="43.26216" lon="0.13487">
        <ele>371.21</ele>
        <time>2011-09-10T18:05:20Z</time>
      </trkpt>
      <trkpt lat="43.26212" lon="0.13487">
        <ele>371.21</ele>
        <time>2011-09-10T18:05:21Z</time>
      </trkpt>
      <trkpt lat="43.26199" lon="0.13486">
        <ele>370.24</ele>
        <time>2011-09-10T18:05:24Z</time>
      </trkpt>
      <trkpt lat="43.26189" lon="0.13486">
        <ele>370.73</ele>
        <time>2011-09-10T18:05:26Z</time>
      </trkpt>
      <trkpt lat="43.26173" lon="0.13485">
        <ele>369.28</ele>
        <time>2011-09-10T18:05:29Z</time>
      </trkpt>
      <trkpt lat="43.2615" lon="0.13476">
        <ele>369.28</ele>
        <time>2011-09-10T18:05:34Z</time>
      </trkpt>
      <trkpt lat="43.26148" lon="0.1347">
        <ele>368.32</ele>
        <time>2011-09-10T18:05:35Z</time>
      </trkpt>
      <trkpt lat="43.26137" lon="0.13436">
        <ele>364.96</ele>
        <time>2011-09-10T18:05:39Z</time>
      </trkpt>
      <trkpt lat="43.26127" lon="0.13407">
        <ele>363.04</ele>
        <time>2011-09-10T18:05:42Z</time>
      </trkpt>
      <trkpt lat="43.26116" lon="0.13379">
        <ele>361.59</ele>
        <time>2011-09-10T18:05:45Z</time>
      </trkpt>
      <trkpt lat="43.2611" lon="0.13361">
        <ele>361.59</ele>
        <time>2011-09-10T18:05:47Z</time>
      </trkpt>
      <trkpt lat="43.26106" lon="0.13354">
        <ele>360.15</ele>
        <time>2011-09-10T18:05:48Z</time>
      </trkpt>
      <trkpt lat="43.26101" lon="0.13347">
        <ele>360.63</ele>
        <time>2011-09-10T18:05:49Z</time>
      </trkpt>
      <trkpt lat="43.26095" lon="0.1334">
        <ele>360.63</ele>
        <time>2011-09-10T18:05:50Z</time>
      </trkpt>
      <trkpt lat="43.26089" lon="0.13335">
        <ele>360.15</ele>
        <time>2011-09-10T18:05:51Z</time>
      </trkpt>
      <trkpt lat="43.26083" lon="0.13331">
        <ele>359.67</ele>
        <time>2011-09-10T18:05:52Z</time>
      </trkpt>
      <trkpt lat="43.26077" lon="0.13327">
        <ele>359.67</ele>
        <time>2011-09-10T18:05:53Z</time>
      </trkpt>
      <trkpt lat="43.26071" lon="0.13322">
        <ele>359.19</ele>
        <time>2011-09-10T18:05:54Z</time>
      </trkpt>
      <trkpt lat="43.26067" lon="0.13316">
        <ele>358.23</ele>
        <time>2011-09-10T18:05:55Z</time>
      </trkpt>
      <trkpt lat="43.26064" lon="0.13308">
        <ele>357.75</ele>
        <time>2011-09-10T18:05:56Z</time>
      </trkpt>
      <trkpt lat="43.26064" lon="0.133">
        <ele>357.75</ele>
        <time>2011-09-10T18:05:57Z</time>
      </trkpt>
      <trkpt lat="43.26065" lon="0.13292">
        <ele>357.27</ele>
        <time>2011-09-10T18:05:58Z</time>
      </trkpt>
      <trkpt lat="43.26066" lon="0.13285">
        <ele>357.27</ele>
        <time>2011-09-10T18:05:59Z</time>
      </trkpt>
      <trkpt lat="43.26067" lon="0.13278">
        <ele>357.27</ele>
        <time>2011-09-10T18:06:00Z</time>
      </trkpt>
      <trkpt lat="43.26067" lon="0.13271">
        <ele>356.79</ele>
        <time>2011-09-10T18:06:01Z</time>
      </trkpt>
      <trkpt lat="43.26067" lon="0.13232">
        <ele>353.9</ele>
        <time>2011-09-10T18:06:09Z</time>
      </trkpt>
      <trkpt lat="43.26067" lon="0.13208">
        <ele>353.42</ele>
        <time>2011-09-10T18:06:12Z</time>
      </trkpt>
      <trkpt lat="43.26067" lon="0.13199">
        <ele>353.42</ele>
        <time>2011-09-10T18:06:13Z</time>
      </trkpt>
      <trkpt lat="43.26068" lon="0.13161">
        <ele>351.5</ele>
        <time>2011-09-10T18:06:17Z</time>
      </trkpt>
      <trkpt lat="43.26067" lon="0.13152">
        <ele>351.02</ele>
        <time>2011-09-10T18:06:18Z</time>
      </trkpt>
      <trkpt lat="43.26065" lon="0.13136">
        <ele>350.54</ele>
        <time>2011-09-10T18:06:20Z</time>
      </trkpt>
      <trkpt lat="43.26063" lon="0.13129">
        <ele>350.06</ele>
        <time>2011-09-10T18:06:21Z</time>
      </trkpt>
      <trkpt lat="43.2606" lon="0.13122">
        <ele>349.58</ele>
        <time>2011-09-10T18:06:22Z</time>
      </trkpt>
      <trkpt lat="43.26056" lon="0.13116">
        <ele>349.1</ele>
        <time>2011-09-10T18:06:23Z</time>
      </trkpt>
      <trkpt lat="43.26051" lon="0.13111">
        <ele>349.1</ele>
        <time>2011-09-10T18:06:24Z</time>
      </trkpt>
      <trkpt lat="43.26046" lon="0.13107">
        <ele>348.62</ele>
        <time>2011-09-10T18:06:25Z</time>
      </trkpt>
      <trkpt lat="43.2604" lon="0.13105">
        <ele>348.62</ele>
        <time>2011-09-10T18:06:26Z</time>
      </trkpt>
      <trkpt lat="43.26035" lon="0.13104">
        <ele>348.13</ele>
        <time>2011-09-10T18:06:27Z</time>
      </trkpt>
      <trkpt lat="43.26029" lon="0.13104">
        <ele>347.65</ele>
        <time>2011-09-10T18:06:28Z</time>
      </trkpt>
      <trkpt lat="43.26023" lon="0.13106">
        <ele>347.17</ele>
        <time>2011-09-10T18:06:29Z</time>
      </trkpt>
      <trkpt lat="43.26016" lon="0.13108">
        <ele>346.69</ele>
        <time>2011-09-10T18:06:30Z</time>
      </trkpt>
      <trkpt lat="43.26009" lon="0.1311">
        <ele>346.21</ele>
        <time>2011-09-10T18:06:31Z</time>
      </trkpt>
      <trkpt lat="43.26001" lon="0.13111">
        <ele>345.25</ele>
        <time>2011-09-10T18:06:32Z</time>
      </trkpt>
      <trkpt lat="43.25993" lon="0.13113">
        <ele>344.77</ele>
        <time>2011-09-10T18:06:33Z</time>
      </trkpt>
      <trkpt lat="43.25978" lon="0.13116">
        <ele>343.33</ele>
        <time>2011-09-10T18:06:35Z</time>
      </trkpt>
      <trkpt lat="43.25949" lon="0.13114">
        <ele>341.41</ele>
        <time>2011-09-10T18:06:39Z</time>
      </trkpt>
      <trkpt lat="43.25942" lon="0.13114">
        <ele>340.92</ele>
        <time>2011-09-10T18:06:40Z</time>
      </trkpt>
      <trkpt lat="43.25936" lon="0.13115">
        <ele>340.92</ele>
        <time>2011-09-10T18:06:41Z</time>
      </trkpt>
      <trkpt lat="43.25929" lon="0.13117">
        <ele>340.92</ele>
        <time>2011-09-10T18:06:42Z</time>
      </trkpt>
      <trkpt lat="43.25922" lon="0.13119">
        <ele>340.44</ele>
        <time>2011-09-10T18:06:43Z</time>
      </trkpt>
      <trkpt lat="43.25916" lon="0.13121">
        <ele>340.44</ele>
        <time>2011-09-10T18:06:44Z</time>
      </trkpt>
      <trkpt lat="43.2591" lon="0.13124">
        <ele>339.96</ele>
        <time>2011-09-10T18:06:45Z</time>
      </trkpt>
      <trkpt lat="43.25861" lon="0.13153">
        <ele>337.08</ele>
        <time>2011-09-10T18:06:53Z</time>
      </trkpt>
      <trkpt lat="43.25845" lon="0.13163">
        <ele>335.64</ele>
        <time>2011-09-10T18:06:56Z</time>
      </trkpt>
      <trkpt lat="43.2584" lon="0.13167">
        <ele>335.64</ele>
        <time>2011-09-10T18:06:57Z</time>
      </trkpt>
      <trkpt lat="43.25832" lon="0.13174">
        <ele>334.68</ele>
        <time>2011-09-10T18:06:59Z</time>
      </trkpt>
      <trkpt lat="43.25828" lon="0.13176">
        <ele>334.68</ele>
        <time>2011-09-10T18:07:00Z</time>
      </trkpt>
      <trkpt lat="43.25825" lon="0.13176">
        <ele>334.2</ele>
        <time>2011-09-10T18:07:01Z</time>
      </trkpt>
      <trkpt lat="43.25821" lon="0.13175">
        <ele>334.2</ele>
        <time>2011-09-10T18:07:02Z</time>
      </trkpt>
      <trkpt lat="43.25818" lon="0.13173">
        <ele>333.23</ele>
        <time>2011-09-10T18:07:03Z</time>
      </trkpt>
      <trkpt lat="43.25815" lon="0.13168">
        <ele>333.23</ele>
        <time>2011-09-10T18:07:04Z</time>
      </trkpt>
      <trkpt lat="43.25813" lon="0.13162">
        <ele>332.27</ele>
        <time>2011-09-10T18:07:05Z</time>
      </trkpt>
      <trkpt lat="43.25811" lon="0.13156">
        <ele>331.79</ele>
        <time>2011-09-10T18:07:06Z</time>
      </trkpt>
      <trkpt lat="43.2581" lon="0.1315">
        <ele>331.31</ele>
        <time>2011-09-10T18:07:07Z</time>
      </trkpt>
      <trkpt lat="43.25809" lon="0.13143">
        <ele>331.31</ele>
        <time>2011-09-10T18:07:08Z</time>
      </trkpt>
      <trkpt lat="43.25807" lon="0.1312">
        <ele>329.39</ele>
        <time>2011-09-10T18:07:11Z</time>
      </trkpt>
      <trkpt lat="43.25808" lon="0.13111">
        <ele>328.43</ele>
        <time>2011-09-10T18:07:12Z</time>
      </trkpt>
      <trkpt lat="43.25807" lon="0.13095">
        <ele>326.99</ele>
        <time>2011-09-10T18:07:14Z</time>
      </trkpt>
      <trkpt lat="43.25805" lon="0.13079">
        <ele>325.54</ele>
        <time>2011-09-10T18:07:16Z</time>
      </trkpt>
      <trkpt lat="43.25803" lon="0.13064">
        <ele>323.62</ele>
        <time>2011-09-10T18:07:18Z</time>
      </trkpt>
      <trkpt lat="43.25802" lon="0.13057">
        <ele>323.14</ele>
        <time>2011-09-10T18:07:19Z</time>
      </trkpt>
      <trkpt lat="43.25802" lon="0.1305">
        <ele>322.18</ele>
        <time>2011-09-10T18:07:20Z</time>
      </trkpt>
      <trkpt lat="43.25806" lon="0.13013">
        <ele>318.33</ele>
        <time>2011-09-10T18:07:26Z</time>
      </trkpt>
      <trkpt lat="43.25808" lon="0.13007">
        <ele>317.85</ele>
        <time>2011-09-10T18:07:27Z</time>
      </trkpt>
      <trkpt lat="43.2581" lon="0.13002">
        <ele>317.85</ele>
        <time>2011-09-10T18:07:28Z</time>
      </trkpt>
      <trkpt lat="43.25812" lon="0.12997">
        <ele>316.41</ele>
        <time>2011-09-10T18:07:29Z</time>
      </trkpt>
      <trkpt lat="43.25815" lon="0.12993">
        <ele>316.41</ele>
        <time>2011-09-10T18:07:30Z</time>
      </trkpt>
      <trkpt lat="43.2582" lon="0.12991">
        <ele>315.45</ele>
        <time>2011-09-10T18:07:31Z</time>
      </trkpt>
      <trkpt lat="43.25825" lon="0.1299">
        <ele>314.97</ele>
        <time>2011-09-10T18:07:32Z</time>
      </trkpt>
      <trkpt lat="43.25831" lon="0.1299">
        <ele>314.97</ele>
        <time>2011-09-10T18:07:33Z</time>
      </trkpt>
      <trkpt lat="43.25838" lon="0.12989">
        <ele>314.49</ele>
        <time>2011-09-10T18:07:34Z</time>
      </trkpt>
      <trkpt lat="43.25844" lon="0.12989">
        <ele>312.57</ele>
        <time>2011-09-10T18:07:35Z</time>
      </trkpt>
      <trkpt lat="43.25854" lon="0.12987">
        <ele>312.09</ele>
        <time>2011-09-10T18:07:37Z</time>
      </trkpt>
      <trkpt lat="43.25858" lon="0.12985">
        <ele>311.6</ele>
        <time>2011-09-10T18:07:38Z</time>
      </trkpt>
      <trkpt lat="43.2586" lon="0.12982">
        <ele>310.64</ele>
        <time>2011-09-10T18:07:39Z</time>
      </trkpt>
      <trkpt lat="43.25862" lon="0.12977">
        <ele>309.2</ele>
        <time>2011-09-10T18:07:40Z</time>
      </trkpt>
      <trkpt lat="43.25865" lon="0.12971">
        <ele>309.2</ele>
        <time>2011-09-10T18:07:41Z</time>
      </trkpt>
      <trkpt lat="43.25865" lon="0.12963">
        <ele>308.72</ele>
        <time>2011-09-10T18:07:42Z</time>
      </trkpt>
      <trkpt lat="43.25864" lon="0.12954">
        <ele>308.72</ele>
        <time>2011-09-10T18:07:43Z</time>
      </trkpt>
      <trkpt lat="43.25853" lon="0.12888">
        <ele>304.88</ele>
        <time>2011-09-10T18:07:49Z</time>
      </trkpt>
      <trkpt lat="43.25851" lon="0.12865">
        <ele>304.39</ele>
        <time>2011-09-10T18:07:51Z</time>
      </trkpt>
      <trkpt lat="43.25834" lon="0.1271">
        <ele>301.03</ele>
        <time>2011-09-10T18:08:05Z</time>
      </trkpt>
      <trkpt lat="43.25823" lon="0.12628">
        <ele>300.55</ele>
        <time>2011-09-10T18:08:15Z</time>
      </trkpt>
      <trkpt lat="43.25823" lon="0.12621">
        <ele>300.07</ele>
        <time>2011-09-10T18:08:16Z</time>
      </trkpt>
      <trkpt lat="43.25821" lon="0.12609">
        <ele>299.59</ele>
        <time>2011-09-10T18:08:18Z</time>
      </trkpt>
      <trkpt lat="43.2582" lon="0.12604">
        <ele>299.59</ele>
        <time>2011-09-10T18:08:19Z</time>
      </trkpt>
      <trkpt lat="43.25819" lon="0.12599">
        <ele>300.07</ele>
        <time>2011-09-10T18:08:20Z</time>
      </trkpt>
      <trkpt lat="43.25818" lon="0.12595">
        <ele>299.59</ele>
        <time>2011-09-10T18:08:21Z</time>
      </trkpt>
      <trkpt lat="43.25817" lon="0.1259">
        <ele>300.07</ele>
        <time>2011-09-10T18:08:22Z</time>
      </trkpt>
      <trkpt lat="43.25809" lon="0.12528">
        <ele>300.07</ele>
        <time>2011-09-10T18:08:38Z</time>
      </trkpt>
      <trkpt lat="43.25803" lon="0.12485">
        <ele>300.07</ele>
        <time>2011-09-10T18:08:53Z</time>
      </trkpt>
      <trkpt lat="43.25797" lon="0.12453">
        <ele>301.51</ele>
        <time>2011-09-10T18:09:06Z</time>
      </trkpt>
      <trkpt lat="43.25796" lon="0.1245">
        <ele>301.03</ele>
        <time>2011-09-10T18:09:21Z</time>
      </trkpt>
      <trkpt lat="43.25796" lon="0.12449">
        <ele>300.55</ele>
        <time>2011-09-10T18:10:13Z</time>
      </trkpt>
      <trkpt lat="43.25796" lon="0.12448">
        <ele>301.03</ele>
        <time>2011-09-10T18:10:14Z</time>
      </trkpt>
      <trkpt lat="43.25795" lon="0.12445">
        <ele>301.03</ele>
        <time>2011-09-10T18:10:15Z</time>
      </trkpt>
      <trkpt lat="43.2578" lon="0.124">
        <ele>301.51</ele>
        <time>2011-09-10T18:10:31Z</time>
      </trkpt>
      <trkpt lat="43.25761" lon="0.12346">
        <ele>302.95</ele>
        <time>2011-09-10T18:10:46Z</time>
      </trkpt>
      <trkpt lat="43.25741" lon="0.12289">
        <ele>303.91</ele>
        <time>2011-09-10T18:11:02Z</time>
      </trkpt>
      <trkpt lat="43.25721" lon="0.12228">
        <ele>304.88</ele>
        <time>2011-09-10T18:11:19Z</time>
      </trkpt>
      <trkpt lat="43.25705" lon="0.12171">
        <ele>305.84</ele>
        <time>2011-09-10T18:11:37Z</time>
      </trkpt>
      <trkpt lat="43.25681" lon="0.12118">
        <ele>307.28</ele>
        <time>2011-09-10T18:11:56Z</time>
      </trkpt>
      <trkpt lat="43.25659" lon="0.12089">
        <ele>308.24</ele>
        <time>2011-09-10T18:12:10Z</time>
      </trkpt>
      <trkpt lat="43.25636" lon="0.12048">
        <ele>309.2</ele>
        <time>2011-09-10T18:12:27Z</time>
      </trkpt>
      <trkpt lat="43.25612" lon="0.12008">
        <ele>310.16</ele>
        <time>2011-09-10T18:12:45Z</time>
      </trkpt>
      <trkpt lat="43.2559" lon="0.11975">
        <ele>311.6</ele>
        <time>2011-09-10T18:13:01Z</time>
      </trkpt>
      <trkpt lat="43.2557" lon="0.11948">
        <ele>312.57</ele>
        <time>2011-09-10T18:13:16Z</time>
      </trkpt>
      <trkpt lat="43.25548" lon="0.11911">
        <ele>313.53</ele>
        <time>2011-09-10T18:13:34Z</time>
      </trkpt>
      <trkpt lat="43.25529" lon="0.1188">
        <ele>314.49</ele>
        <time>2011-09-10T18:13:50Z</time>
      </trkpt>
      <trkpt lat="43.25509" lon="0.11843">
        <ele>315.93</ele>
        <time>2011-09-10T18:14:08Z</time>
      </trkpt>
      <trkpt lat="43.25489" lon="0.11804">
        <ele>316.41</ele>
        <time>2011-09-10T18:14:27Z</time>
      </trkpt>
      <trkpt lat="43.25469" lon="0.11765">
        <ele>317.85</ele>
        <time>2011-09-10T18:14:45Z</time>
      </trkpt>
      <trkpt lat="43.25453" lon="0.11733">
        <ele>319.3</ele>
        <time>2011-09-10T18:15:00Z</time>
      </trkpt>
      <trkpt lat="43.25434" lon="0.11698">
        <ele>319.78</ele>
        <time>2011-09-10T18:15:16Z</time>
      </trkpt>
      <trkpt lat="43.25414" lon="0.11661">
        <ele>321.22</ele>
        <time>2011-09-10T18:15:33Z</time>
      </trkpt>
      <trkpt lat="43.25395" lon="0.11626">
        <ele>322.18</ele>
        <time>2011-09-10T18:15:48Z</time>
      </trkpt>
      <trkpt lat="43.25377" lon="0.11593">
        <ele>322.18</ele>
        <time>2011-09-10T18:16:02Z</time>
      </trkpt>
      <trkpt lat="43.25358" lon="0.11557">
        <ele>323.62</ele>
        <time>2011-09-10T18:16:18Z</time>
      </trkpt>
      <trkpt lat="43.25341" lon="0.11522">
        <ele>324.58</ele>
        <time>2011-09-10T18:16:33Z</time>
      </trkpt>
      <trkpt lat="43.25322" lon="0.11483">
        <ele>326.02</ele>
        <time>2011-09-10T18:16:51Z</time>
      </trkpt>
      <trkpt lat="43.25318" lon="0.11474">
        <ele>326.02</ele>
        <time>2011-09-10T18:16:56Z</time>
      </trkpt>
      <trkpt lat="43.25317" lon="0.11473">
        <ele>326.5</ele>
        <time>2011-09-10T18:16:57Z</time>
      </trkpt>
      <trkpt lat="43.25317" lon="0.11471">
        <ele>326.5</ele>
        <time>2011-09-10T18:16:58Z</time>
      </trkpt>
      <trkpt lat="43.25316" lon="0.11469">
        <ele>325.54</ele>
        <time>2011-09-10T18:16:59Z</time>
      </trkpt>
      <trkpt lat="43.25314" lon="0.11468">
        <ele>326.02</ele>
        <time>2011-09-10T18:17:00Z</time>
      </trkpt>
      <trkpt lat="43.25303" lon="0.11445">
        <ele>326.99</ele>
        <time>2011-09-10T18:17:12Z</time>
      </trkpt>
      <trkpt lat="43.25289" lon="0.11423">
        <ele>326.5</ele>
        <time>2011-09-10T18:17:25Z</time>
      </trkpt>
      <trkpt lat="43.25289" lon="0.11405">
        <ele>326.99</ele>
        <time>2011-09-10T18:17:29Z</time>
      </trkpt>
      <trkpt lat="43.25297" lon="0.11386">
        <ele>325.54</ele>
        <time>2011-09-10T18:17:32Z</time>
      </trkpt>
      <trkpt lat="43.25302" lon="0.11372">
        <ele>324.58</ele>
        <time>2011-09-10T18:17:34Z</time>
      </trkpt>
      <trkpt lat="43.25302" lon="0.11364">
        <ele>324.58</ele>
        <time>2011-09-10T18:17:35Z</time>
      </trkpt>
      <trkpt lat="43.25301" lon="0.11355">
        <ele>323.62</ele>
        <time>2011-09-10T18:17:36Z</time>
      </trkpt>
      <trkpt lat="43.25298" lon="0.11347">
        <ele>323.14</ele>
        <time>2011-09-10T18:17:37Z</time>
      </trkpt>
      <trkpt lat="43.25294" lon="0.11339">
        <ele>322.66</ele>
        <time>2011-09-10T18:17:38Z</time>
      </trkpt>
      <trkpt lat="43.25289" lon="0.11332">
        <ele>322.66</ele>
        <time>2011-09-10T18:17:39Z</time>
      </trkpt>
      <trkpt lat="43.25283" lon="0.11327">
        <ele>322.18</ele>
        <time>2011-09-10T18:17:40Z</time>
      </trkpt>
      <trkpt lat="43.25277" lon="0.11323">
        <ele>321.22</ele>
        <time>2011-09-10T18:17:41Z</time>
      </trkpt>
      <trkpt lat="43.25271" lon="0.1132">
        <ele>320.26</ele>
        <time>2011-09-10T18:17:42Z</time>
      </trkpt>
      <trkpt lat="43.25264" lon="0.11319">
        <ele>320.26</ele>
        <time>2011-09-10T18:17:43Z</time>
      </trkpt>
      <trkpt lat="43.25259" lon="0.11318">
        <ele>319.78</ele>
        <time>2011-09-10T18:17:44Z</time>
      </trkpt>
      <trkpt lat="43.25255" lon="0.11317">
        <ele>319.3</ele>
        <time>2011-09-10T18:17:45Z</time>
      </trkpt>
      <trkpt lat="43.2525" lon="0.11313">
        <ele>318.33</ele>
        <time>2011-09-10T18:17:47Z</time>
      </trkpt>
      <trkpt lat="43.25248" lon="0.1131">
        <ele>317.85</ele>
        <time>2011-09-10T18:17:48Z</time>
      </trkpt>
      <trkpt lat="43.25247" lon="0.11306">
        <ele>317.37</ele>
        <time>2011-09-10T18:17:49Z</time>
      </trkpt>
      <trkpt lat="43.2525" lon="0.11303">
        <ele>317.37</ele>
        <time>2011-09-10T18:17:50Z</time>
      </trkpt>
      <trkpt lat="43.25253" lon="0.11301">
        <ele>317.37</ele>
        <time>2011-09-10T18:17:51Z</time>
      </trkpt>
      <trkpt lat="43.25257" lon="0.11299">
        <ele>316.41</ele>
        <time>2011-09-10T18:17:52Z</time>
      </trkpt>
      <trkpt lat="43.25262" lon="0.11297">
        <ele>316.41</ele>
        <time>2011-09-10T18:17:53Z</time>
      </trkpt>
      <trkpt lat="43.25267" lon="0.11295">
        <ele>316.41</ele>
        <time>2011-09-10T18:17:54Z</time>
      </trkpt>
      <trkpt lat="43.25272" lon="0.11293">
        <ele>315.93</ele>
        <time>2011-09-10T18:17:55Z</time>
      </trkpt>
      <trkpt lat="43.25321" lon="0.11273">
        <ele>313.05</ele>
        <time>2011-09-10T18:18:02Z</time>
      </trkpt>
      <trkpt lat="43.25337" lon="0.11261">
        <ele>312.09</ele>
        <time>2011-09-10T18:18:04Z</time>
      </trkpt>
      <trkpt lat="43.25376" lon="0.11237">
        <ele>308.24</ele>
        <time>2011-09-10T18:18:09Z</time>
      </trkpt>
      <trkpt lat="43.25382" lon="0.11228">
        <ele>307.76</ele>
        <time>2011-09-10T18:18:10Z</time>
      </trkpt>
      <trkpt lat="43.25387" lon="0.11217">
        <ele>307.28</ele>
        <time>2011-09-10T18:18:11Z</time>
      </trkpt>
      <trkpt lat="43.25389" lon="0.11204">
        <ele>306.32</ele>
        <time>2011-09-10T18:18:12Z</time>
      </trkpt>
      <trkpt lat="43.2539" lon="0.1119">
        <ele>305.36</ele>
        <time>2011-09-10T18:18:13Z</time>
      </trkpt>
      <trkpt lat="43.25391" lon="0.11177">
        <ele>305.36</ele>
        <time>2011-09-10T18:18:14Z</time>
      </trkpt>
      <trkpt lat="43.25392" lon="0.11136">
        <ele>303.91</ele>
        <time>2011-09-10T18:18:17Z</time>
      </trkpt>
      <trkpt lat="43.25395" lon="0.11028">
        <ele>302.47</ele>
        <time>2011-09-10T18:18:26Z</time>
      </trkpt>
      <trkpt lat="43.25393" lon="0.11018">
        <ele>302.47</ele>
        <time>2011-09-10T18:18:27Z</time>
      </trkpt>
      <trkpt lat="43.25391" lon="0.11008">
        <ele>302.47</ele>
        <time>2011-09-10T18:18:28Z</time>
      </trkpt>
      <trkpt lat="43.25372" lon="0.10934">
        <ele>301.99</ele>
        <time>2011-09-10T18:18:37Z</time>
      </trkpt>
      <trkpt lat="43.25336" lon="0.10855">
        <ele>301.99</ele>
        <time>2011-09-10T18:18:50Z</time>
      </trkpt>
      <trkpt lat="43.25294" lon="0.10758">
        <ele>301.51</ele>
        <time>2011-09-10T18:19:06Z</time>
      </trkpt>
      <trkpt lat="43.25283" lon="0.1072">
        <ele>301.99</ele>
        <time>2011-09-10T18:19:12Z</time>
      </trkpt>
      <trkpt lat="43.25266" lon="0.10651">
        <ele>301.03</ele>
        <time>2011-09-10T18:19:25Z</time>
      </trkpt>
      <trkpt lat="43.25258" lon="0.10604">
        <ele>301.03</ele>
        <time>2011-09-10T18:19:35Z</time>
      </trkpt>
      <trkpt lat="43.25251" lon="0.10553">
        <ele>300.55</ele>
        <time>2011-09-10T18:19:47Z</time>
      </trkpt>
      <trkpt lat="43.25245" lon="0.10509">
        <ele>301.03</ele>
        <time>2011-09-10T18:20:00Z</time>
      </trkpt>
      <trkpt lat="43.25237" lon="0.10455">
        <ele>301.51</ele>
        <time>2011-09-10T18:20:14Z</time>
      </trkpt>
      <trkpt lat="43.25231" lon="0.10414">
        <ele>301.03</ele>
        <time>2011-09-10T18:20:24Z</time>
      </trkpt>
      <trkpt lat="43.25229" lon="0.10399">
        <ele>301.03</ele>
        <time>2011-09-10T18:20:28Z</time>
      </trkpt>
      <trkpt lat="43.25229" lon="0.10396">
        <ele>300.55</ele>
        <time>2011-09-10T18:20:29Z</time>
      </trkpt>
      <trkpt lat="43.25229" lon="0.10392">
        <ele>300.55</ele>
        <time>2011-09-10T18:20:30Z</time>
      </trkpt>
      <trkpt lat="43.25229" lon="0.10388">
        <ele>301.03</ele>
        <time>2011-09-10T18:20:31Z</time>
      </trkpt>
      <trkpt lat="43.25229" lon="0.10384">
        <ele>300.55</ele>
        <time>2011-09-10T18:20:32Z</time>
      </trkpt>
      <trkpt lat="43.25224" lon="0.10326">
        <ele>301.03</ele>
        <time>2011-09-10T18:20:46Z</time>
      </trkpt>
      <trkpt lat="43.25214" lon="0.10264">
        <ele>300.55</ele>
        <time>2011-09-10T18:21:00Z</time>
      </trkpt>
      <trkpt lat="43.25208" lon="0.10195">
        <ele>300.55</ele>
        <time>2011-09-10T18:21:14Z</time>
      </trkpt>
      <trkpt lat="43.25203" lon="0.10141">
        <ele>300.55</ele>
        <time>2011-09-10T18:21:27Z</time>
      </trkpt>
      <trkpt lat="43.25185" lon="0.10077">
        <ele>300.55</ele>
        <time>2011-09-10T18:21:42Z</time>
      </trkpt>
      <trkpt lat="43.2515" lon="0.10031">
        <ele>299.59</ele>
        <time>2011-09-10T18:21:56Z</time>
      </trkpt>
      <trkpt lat="43.25113" lon="0.09988">
        <ele>301.03</ele>
        <time>2011-09-10T18:22:10Z</time>
      </trkpt>
      <trkpt lat="43.25076" lon="0.09954">
        <ele>300.07</ele>
        <time>2011-09-10T18:22:23Z</time>
      </trkpt>
      <trkpt lat="43.25043" lon="0.09945">
        <ele>301.03</ele>
        <time>2011-09-10T18:22:33Z</time>
      </trkpt>
      <trkpt lat="43.24997" lon="0.09935">
        <ele>301.51</ele>
        <time>2011-09-10T18:22:46Z</time>
      </trkpt>
      <trkpt lat="43.24943" lon="0.09933">
        <ele>301.99</ele>
        <time>2011-09-10T18:23:01Z</time>
      </trkpt>
      <trkpt lat="43.24892" lon="0.09927">
        <ele>301.99</ele>
        <time>2011-09-10T18:23:15Z</time>
      </trkpt>
      <trkpt lat="43.24843" lon="0.09907">
        <ele>302.95</ele>
        <time>2011-09-10T18:23:29Z</time>
      </trkpt>
      <trkpt lat="43.248" lon="0.09874">
        <ele>302.95</ele>
        <time>2011-09-10T18:23:43Z</time>
      </trkpt>
      <trkpt lat="43.24764" lon="0.09837">
        <ele>303.43</ele>
        <time>2011-09-10T18:23:56Z</time>
      </trkpt>
      <trkpt lat="43.24731" lon="0.09794">
        <ele>303.91</ele>
        <time>2011-09-10T18:24:08Z</time>
      </trkpt>
      <trkpt lat="43.24697" lon="0.09758">
        <ele>303.91</ele>
        <time>2011-09-10T18:24:20Z</time>
      </trkpt>
      <trkpt lat="43.24663" lon="0.09728">
        <ele>304.39</ele>
        <time>2011-09-10T18:24:31Z</time>
      </trkpt>
      <trkpt lat="43.24629" lon="0.09697">
        <ele>304.39</ele>
        <time>2011-09-10T18:24:45Z</time>
      </trkpt>
      <trkpt lat="43.24596" lon="0.09682">
        <ele>304.88</ele>
        <time>2011-09-10T18:24:57Z</time>
      </trkpt>
      <trkpt lat="43.24583" lon="0.0968">
        <ele>304.88</ele>
        <time>2011-09-10T18:25:02Z</time>
      </trkpt>
      <trkpt lat="43.24543" lon="0.09703">
        <ele>304.88</ele>
        <time>2011-09-10T18:25:15Z</time>
      </trkpt>
      <trkpt lat="43.24496" lon="0.09734">
        <ele>304.88</ele>
        <time>2011-09-10T18:25:29Z</time>
      </trkpt>
      <trkpt lat="43.24466" lon="0.09754">
        <ele>305.84</ele>
        <time>2011-09-10T18:25:40Z</time>
      </trkpt>
      <trkpt lat="43.24426" lon="0.09779">
        <ele>305.84</ele>
        <time>2011-09-10T18:25:53Z</time>
      </trkpt>
      <trkpt lat="43.24395" lon="0.09787">
        <ele>306.32</ele>
        <time>2011-09-10T18:26:02Z</time>
      </trkpt>
      <trkpt lat="43.24391" lon="0.0979">
        <ele>306.8</ele>
        <time>2011-09-10T18:26:03Z</time>
      </trkpt>
      <trkpt lat="43.24388" lon="0.09793">
        <ele>306.32</ele>
        <time>2011-09-10T18:26:04Z</time>
      </trkpt>
      <trkpt lat="43.24386" lon="0.09798">
        <ele>305.84</ele>
        <time>2011-09-10T18:26:05Z</time>
      </trkpt>
      <trkpt lat="43.24385" lon="0.09803">
        <ele>306.8</ele>
        <time>2011-09-10T18:26:06Z</time>
      </trkpt>
      <trkpt lat="43.24385" lon="0.09809">
        <ele>306.32</ele>
        <time>2011-09-10T18:26:07Z</time>
      </trkpt>
      <trkpt lat="43.24384" lon="0.09814">
        <ele>306.8</ele>
        <time>2011-09-10T18:26:08Z</time>
      </trkpt>
      <trkpt lat="43.2437" lon="0.09871">
        <ele>306.32</ele>
        <time>2011-09-10T18:26:20Z</time>
      </trkpt>
      <trkpt lat="43.24347" lon="0.09926">
        <ele>306.8</ele>
        <time>2011-09-10T18:26:32Z</time>
      </trkpt>
      <trkpt lat="43.24334" lon="0.09996">
        <ele>307.28</ele>
        <time>2011-09-10T18:26:46Z</time>
      </trkpt>
      <trkpt lat="43.24332" lon="0.10046">
        <ele>307.28</ele>
        <time>2011-09-10T18:26:57Z</time>
      </trkpt>
      <trkpt lat="43.2433" lon="0.1005">
        <ele>307.28</ele>
        <time>2011-09-10T18:26:58Z</time>
      </trkpt>
      <trkpt lat="43.24327" lon="0.10053">
        <ele>307.28</ele>
        <time>2011-09-10T18:26:59Z</time>
      </trkpt>
      <trkpt lat="43.24324" lon="0.10056">
        <ele>307.28</ele>
        <time>2011-09-10T18:27:00Z</time>
      </trkpt>
      <trkpt lat="43.2432" lon="0.10059">
        <ele>307.28</ele>
        <time>2011-09-10T18:27:01Z</time>
      </trkpt>
      <trkpt lat="43.24317" lon="0.10061">
        <ele>307.28</ele>
        <time>2011-09-10T18:27:02Z</time>
      </trkpt>
      <trkpt lat="43.24313" lon="0.10063">
        <ele>307.28</ele>
        <time>2011-09-10T18:27:03Z</time>
      </trkpt>
      <trkpt lat="43.24309" lon="0.10065">
        <ele>307.76</ele>
        <time>2011-09-10T18:27:04Z</time>
      </trkpt>
      <trkpt lat="43.24305" lon="0.10067">
        <ele>308.24</ele>
        <time>2011-09-10T18:27:05Z</time>
      </trkpt>
      <trkpt lat="43.24301" lon="0.10068">
        <ele>307.28</ele>
        <time>2011-09-10T18:27:06Z</time>
      </trkpt>
      <trkpt lat="43.24244" lon="0.1008">
        <ele>307.76</ele>
        <time>2011-09-10T18:27:20Z</time>
      </trkpt>
      <trkpt lat="43.24195" lon="0.10098">
        <ele>308.24</ele>
        <time>2011-09-10T18:27:34Z</time>
      </trkpt>
      <trkpt lat="43.24161" lon="0.1013">
        <ele>308.24</ele>
        <time>2011-09-10T18:27:48Z</time>
      </trkpt>
      <trkpt lat="43.24121" lon="0.10121">
        <ele>309.2</ele>
        <time>2011-09-10T18:28:01Z</time>
      </trkpt>
      <trkpt lat="43.24078" lon="0.10119">
        <ele>309.2</ele>
        <time>2011-09-10T18:28:14Z</time>
      </trkpt>
      <trkpt lat="43.24038" lon="0.10129">
        <ele>308.72</ele>
        <time>2011-09-10T18:28:27Z</time>
      </trkpt>
      <trkpt lat="43.24008" lon="0.10138">
        <ele>308.72</ele>
        <time>2011-09-10T18:28:39Z</time>
      </trkpt>
      <trkpt lat="43.24005" lon="0.10141">
        <ele>310.16</ele>
        <time>2011-09-10T18:28:40Z</time>
      </trkpt>
      <trkpt lat="43.24003" lon="0.10144">
        <ele>309.68</ele>
        <time>2011-09-10T18:28:41Z</time>
      </trkpt>
      <trkpt lat="43.24002" lon="0.10148">
        <ele>310.16</ele>
        <time>2011-09-10T18:28:42Z</time>
      </trkpt>
      <trkpt lat="43.24001" lon="0.10152">
        <ele>309.68</ele>
        <time>2011-09-10T18:28:43Z</time>
      </trkpt>
      <trkpt lat="43.24" lon="0.10156">
        <ele>310.16</ele>
        <time>2011-09-10T18:28:44Z</time>
      </trkpt>
      <trkpt lat="43.23976" lon="0.10217">
        <ele>310.64</ele>
        <time>2011-09-10T18:29:00Z</time>
      </trkpt>
      <trkpt lat="43.23954" lon="0.10281">
        <ele>310.64</ele>
        <time>2011-09-10T18:29:14Z</time>
      </trkpt>
      <trkpt lat="43.23932" lon="0.1034">
        <ele>311.12</ele>
        <time>2011-09-10T18:29:27Z</time>
      </trkpt>
      <trkpt lat="43.23926" lon="0.10355">
        <ele>311.12</ele>
        <time>2011-09-10T18:29:31Z</time>
      </trkpt>
      <trkpt lat="43.23923" lon="0.10358">
        <ele>311.12</ele>
        <time>2011-09-10T18:29:32Z</time>
      </trkpt>
      <trkpt lat="43.2392" lon="0.10359">
        <ele>311.12</ele>
        <time>2011-09-10T18:29:33Z</time>
      </trkpt>
      <trkpt lat="43.23917" lon="0.10359">
        <ele>311.12</ele>
        <time>2011-09-10T18:29:34Z</time>
      </trkpt>
      <trkpt lat="43.23914" lon="0.10358">
        <ele>311.12</ele>
        <time>2011-09-10T18:29:35Z</time>
      </trkpt>
      <trkpt lat="43.23873" lon="0.10333">
        <ele>311.6</ele>
        <time>2011-09-10T18:29:48Z</time>
      </trkpt>
      <trkpt lat="43.23829" lon="0.10331">
        <ele>312.09</ele>
        <time>2011-09-10T18:30:00Z</time>
      </trkpt>
      <trkpt lat="43.23786" lon="0.10336">
        <ele>312.57</ele>
        <time>2011-09-10T18:30:12Z</time>
      </trkpt>
      <trkpt lat="43.23754" lon="0.10344">
        <ele>312.57</ele>
        <time>2011-09-10T18:30:24Z</time>
      </trkpt>
      <trkpt lat="43.2375" lon="0.10344">
        <ele>313.05</ele>
        <time>2011-09-10T18:30:26Z</time>
      </trkpt>
      <trkpt lat="43.23749" lon="0.10342">
        <ele>312.57</ele>
        <time>2011-09-10T18:30:27Z</time>
      </trkpt>
      <trkpt lat="43.23746" lon="0.10337">
        <ele>312.09</ele>
        <time>2011-09-10T18:30:37Z</time>
      </trkpt>
      <trkpt lat="43.23744" lon="0.10332">
        <ele>313.05</ele>
        <time>2011-09-10T18:30:41Z</time>
      </trkpt>
      <trkpt lat="43.23744" lon="0.10329">
        <ele>312.57</ele>
        <time>2011-09-10T18:30:42Z</time>
      </trkpt>
      <trkpt lat="43.23744" lon="0.10327">
        <ele>313.05</ele>
        <time>2011-09-10T18:30:43Z</time>
      </trkpt>
      <trkpt lat="43.23743" lon="0.10324">
        <ele>313.05</ele>
        <time>2011-09-10T18:30:44Z</time>
      </trkpt>
      <trkpt lat="43.23742" lon="0.10322">
        <ele>312.57</ele>
        <time>2011-09-10T18:30:45Z</time>
      </trkpt>
      <trkpt lat="43.23742" lon="0.10319">
        <ele>313.05</ele>
        <time>2011-09-10T18:30:46Z</time>
      </trkpt>
      <trkpt lat="43.23737" lon="0.10287">
        <ele>313.05</ele>
        <time>2011-09-10T18:30:57Z</time>
      </trkpt>
      <trkpt lat="43.23735" lon="0.10286">
        <ele>312.57</ele>
        <time>2011-09-10T18:30:58Z</time>
      </trkpt>
      <trkpt lat="43.23733" lon="0.10285">
        <ele>313.05</ele>
        <time>2011-09-10T18:30:59Z</time>
      </trkpt>
      <trkpt lat="43.23731" lon="0.10285">
        <ele>312.57</ele>
        <time>2011-09-10T18:31:00Z</time>
      </trkpt>
      <trkpt lat="43.2373" lon="0.10286">
        <ele>312.57</ele>
        <time>2011-09-10T18:31:01Z</time>
      </trkpt>
      <trkpt lat="43.23728" lon="0.10287">
        <ele>313.05</ele>
        <time>2011-09-10T18:31:02Z</time>
      </trkpt>
      <trkpt lat="43.23727" lon="0.10288">
        <ele>313.05</ele>
        <time>2011-09-10T18:31:03Z</time>
      </trkpt>
      <trkpt lat="43.23726" lon="0.10289">
        <ele>313.05</ele>
        <time>2011-09-10T18:31:04Z</time>
      </trkpt>
      <trkpt lat="43.23724" lon="0.10289">
        <ele>313.05</ele>
        <time>2011-09-10T18:31:05Z</time>
      </trkpt>
      <trkpt lat="43.23722" lon="0.10289">
        <ele>312.09</ele>
        <time>2011-09-10T18:31:06Z</time>
      </trkpt>
      <trkpt lat="43.2372" lon="0.10289">
        <ele>312.57</ele>
        <time>2011-09-10T18:31:07Z</time>
      </trkpt>
      <trkpt lat="43.2371" lon="0.10291">
        <ele>312.57</ele>
        <time>2011-09-10T18:31:13Z</time>
      </trkpt>
      <trkpt lat="43.23709" lon="0.10293">
        <ele>312.57</ele>
        <time>2011-09-10T18:31:14Z</time>
      </trkpt>
      <trkpt lat="43.23707" lon="0.10294">
        <ele>312.57</ele>
        <time>2011-09-10T18:31:15Z</time>
      </trkpt>
      <trkpt lat="43.23706" lon="0.10294">
        <ele>313.05</ele>
        <time>2011-09-10T18:31:16Z</time>
      </trkpt>
      <trkpt lat="43.23704" lon="0.10294">
        <ele>312.57</ele>
        <time>2011-09-10T18:31:17Z</time>
      </trkpt>
      <trkpt lat="43.23702" lon="0.10294">
        <ele>313.05</ele>
        <time>2011-09-10T18:31:18Z</time>
      </trkpt>
      <trkpt lat="43.237" lon="0.10294">
        <ele>312.57</ele>
        <time>2011-09-10T18:31:19Z</time>
      </trkpt>
      <trkpt lat="43.23698" lon="0.10294">
        <ele>312.57</ele>
        <time>2011-09-10T18:31:20Z</time>
      </trkpt>
      <trkpt lat="43.23669" lon="0.10305">
        <ele>313.05</ele>
        <time>2011-09-10T18:31:32Z</time>
      </trkpt>
      <trkpt lat="43.23632" lon="0.10315">
        <ele>313.53</ele>
        <time>2011-09-10T18:31:44Z</time>
      </trkpt>
      <trkpt lat="43.2358" lon="0.1033">
        <ele>313.53</ele>
        <time>2011-09-10T18:31:59Z</time>
      </trkpt>
      <trkpt lat="43.23542" lon="0.10347">
        <ele>314.01</ele>
        <time>2011-09-10T18:32:12Z</time>
      </trkpt>
      <trkpt lat="43.23521" lon="0.10348">
        <ele>314.49</ele>
        <time>2011-09-10T18:32:20Z</time>
      </trkpt>
      <trkpt lat="43.23519" lon="0.10345">
        <ele>314.49</ele>
        <time>2011-09-10T18:32:21Z</time>
      </trkpt>
      <trkpt lat="43.23518" lon="0.10342">
        <ele>314.01</ele>
        <time>2011-09-10T18:32:22Z</time>
      </trkpt>
      <trkpt lat="43.2351" lon="0.10297">
        <ele>314.97</ele>
        <time>2011-09-10T18:32:34Z</time>
      </trkpt>
      <trkpt lat="43.23498" lon="0.10242">
        <ele>314.97</ele>
        <time>2011-09-10T18:32:47Z</time>
      </trkpt>
      <trkpt lat="43.23487" lon="0.1017">
        <ele>314.49</ele>
        <time>2011-09-10T18:33:04Z</time>
      </trkpt>
      <trkpt lat="43.23483" lon="0.10144">
        <ele>314.97</ele>
        <time>2011-09-10T18:33:12Z</time>
      </trkpt>
      <trkpt lat="43.23484" lon="0.10142">
        <ele>314.97</ele>
        <time>2011-09-10T18:33:13Z</time>
      </trkpt>
      <trkpt lat="43.23485" lon="0.1014">
        <ele>314.49</ele>
        <time>2011-09-10T18:33:26Z</time>
      </trkpt>
      <trkpt lat="43.23488" lon="0.10138">
        <ele>314.01</ele>
        <time>2011-09-10T18:33:31Z</time>
      </trkpt>
      <trkpt lat="43.23489" lon="0.10139">
        <ele>314.01</ele>
        <time>2011-09-10T18:33:32Z</time>
      </trkpt>
      <trkpt lat="43.23498" lon="0.10138">
        <ele>313.53</ele>
        <time>2011-09-10T18:33:43Z</time>
      </trkpt>
      <trkpt lat="43.23498" lon="0.10138">
        <ele>318.81</ele>
        <time>2011-09-10T18:33:58Z</time>
      </trkpt>
      <trkpt lat="43.23498" lon="0.10138">
        <ele>315.93</ele>
        <time>2011-09-10T18:33:59Z</time>
      </trkpt>
      <trkpt lat="43.23498" lon="0.10138">
        <ele>314.97</ele>
        <time>2011-09-10T18:34:01Z</time>
      </trkpt>
      <trkpt lat="43.23497" lon="0.10138">
        <ele>314.97</ele>
        <time>2011-09-10T18:34:34Z</time>
      </trkpt>
      <trkpt lat="43.23499" lon="0.10139">
        <ele>314.49</ele>
        <time>2011-09-10T18:34:56Z</time>
      </trkpt>
    </trkseg>
  </trk>
</gpx>